<?xml version="1.0" encoding="UTF-8" standalone="no" ?>
<gpx xmlns="http://www.topografix.com/GPX/1/1" xmlns:xsi="http://www.w3.org/2001/XMLSchema-instance" xsi:schemaLocation="http://www.topografix.com/GPX/1/1 http://www.topografix.com/GPX/1/1/gpx.xsd" version="1.1" creator="VisuGPX - https://www.visugpx.com">
  <metadata>
    <name>SSE 66km</name>
  </metadata>
  <trk>
    <name><![CDATA[Le Cens et la Chézine - 33208 - UtagawaVTT.com]]></name>
    <extensions>
      <line xmlns="http://www.topografix.com/GPX/gpx_style/0/2">
        <color>00FFFF</color>
        <width>4</width>
      </line>
    </extensions>
    <trkseg>
      <trkpt lat="47.26814" lon="-1.67091">
        <ele>37.848</ele>
        <time>2021-06-23T14:16:34Z</time>
      </trkpt>
      <trkpt lat="47.26829" lon="-1.671">
        <ele>36.913</ele>
        <time>2021-06-23T14:16:47Z</time>
      </trkpt>
      <trkpt lat="47.2687" lon="-1.67143">
        <ele>34.268</ele>
        <time>2021-06-23T14:16:57Z</time>
      </trkpt>
      <trkpt lat="47.26895" lon="-1.67132">
        <ele>35.769</ele>
        <time>2021-06-23T14:17:01Z</time>
      </trkpt>
      <trkpt lat="47.26911" lon="-1.67068">
        <ele>38.242</ele>
        <time>2021-06-23T14:17:12Z</time>
      </trkpt>
      <trkpt lat="47.26927" lon="-1.66996">
        <ele>37.491</ele>
        <time>2021-06-23T14:17:22Z</time>
      </trkpt>
      <trkpt lat="47.26939" lon="-1.66949">
        <ele>37.076</ele>
        <time>2021-06-23T14:17:31Z</time>
      </trkpt>
      <trkpt lat="47.26937" lon="-1.66923">
        <ele>36.261</ele>
        <time>2021-06-23T14:17:36Z</time>
      </trkpt>
      <trkpt lat="47.26919" lon="-1.66862">
        <ele>35.968</ele>
        <time>2021-06-23T14:17:46Z</time>
      </trkpt>
      <trkpt lat="47.26904" lon="-1.66835">
        <ele>34.931</ele>
        <time>2021-06-23T14:17:51Z</time>
      </trkpt>
      <trkpt lat="47.26884" lon="-1.66813">
        <ele>33.893</ele>
        <time>2021-06-23T14:17:56Z</time>
      </trkpt>
      <trkpt lat="47.26851" lon="-1.66787">
        <ele>34.179</ele>
        <time>2021-06-23T14:18:05Z</time>
      </trkpt>
      <trkpt lat="47.26836" lon="-1.66766">
        <ele>34.207</ele>
        <time>2021-06-23T14:18:09Z</time>
      </trkpt>
      <trkpt lat="47.26808" lon="-1.66715">
        <ele>34.274</ele>
        <time>2021-06-23T14:18:18Z</time>
      </trkpt>
      <trkpt lat="47.26793" lon="-1.66692">
        <ele>34.134</ele>
        <time>2021-06-23T14:18:24Z</time>
      </trkpt>
      <trkpt lat="47.26777" lon="-1.66663">
        <ele>34.474</ele>
        <time>2021-06-23T14:18:28Z</time>
      </trkpt>
      <trkpt lat="47.26761" lon="-1.66616">
        <ele>33.23</ele>
        <time>2021-06-23T14:18:39Z</time>
      </trkpt>
      <trkpt lat="47.26759" lon="-1.666">
        <ele>34.872</ele>
        <time>2021-06-23T14:18:47Z</time>
      </trkpt>
      <trkpt lat="47.26759" lon="-1.66584">
        <ele>36.361</ele>
        <time>2021-06-23T14:18:52Z</time>
      </trkpt>
      <trkpt lat="47.26754" lon="-1.66569">
        <ele>37.116</ele>
        <time>2021-06-23T14:19:05Z</time>
      </trkpt>
      <trkpt lat="47.2675" lon="-1.66531">
        <ele>38.854</ele>
        <time>2021-06-23T14:19:17Z</time>
      </trkpt>
      <trkpt lat="47.26747" lon="-1.66518">
        <ele>39.058</ele>
        <time>2021-06-23T14:19:30Z</time>
      </trkpt>
      <trkpt lat="47.2675" lon="-1.66503">
        <ele>40.393</ele>
        <time>2021-06-23T14:19:44Z</time>
      </trkpt>
      <trkpt lat="47.26749" lon="-1.66472">
        <ele>41.254</ele>
        <time>2021-06-23T14:19:56Z</time>
      </trkpt>
      <trkpt lat="47.26743" lon="-1.66456">
        <ele>40.31</ele>
        <time>2021-06-23T14:20:01Z</time>
      </trkpt>
      <trkpt lat="47.26737" lon="-1.66444">
        <ele>39.311</ele>
        <time>2021-06-23T14:20:08Z</time>
      </trkpt>
      <trkpt lat="47.26739" lon="-1.6643">
        <ele>40.085</ele>
        <time>2021-06-23T14:20:15Z</time>
      </trkpt>
      <trkpt lat="47.26745" lon="-1.66418">
        <ele>41.649</ele>
        <time>2021-06-23T14:20:33Z</time>
      </trkpt>
      <trkpt lat="47.26752" lon="-1.6641">
        <ele>43.222</ele>
        <time>2021-06-23T14:20:40Z</time>
      </trkpt>
      <trkpt lat="47.26792" lon="-1.66379">
        <ele>48.509</ele>
        <time>2021-06-23T14:21:16Z</time>
      </trkpt>
      <trkpt lat="47.26805" lon="-1.66359">
        <ele>49.979</ele>
        <time>2021-06-23T14:21:29Z</time>
      </trkpt>
      <trkpt lat="47.26799" lon="-1.66349">
        <ele>49.657</ele>
        <time>2021-06-23T14:21:36Z</time>
      </trkpt>
      <trkpt lat="47.2679" lon="-1.66341">
        <ele>49.11</ele>
        <time>2021-06-23T14:21:40Z</time>
      </trkpt>
      <trkpt lat="47.26756" lon="-1.66321">
        <ele>46.919</ele>
        <time>2021-06-23T14:21:51Z</time>
      </trkpt>
      <trkpt lat="47.26747" lon="-1.66306">
        <ele>46.712</ele>
        <time>2021-06-23T14:21:55Z</time>
      </trkpt>
      <trkpt lat="47.26735" lon="-1.66296">
        <ele>46.072</ele>
        <time>2021-06-23T14:22:06Z</time>
      </trkpt>
      <trkpt lat="47.2671" lon="-1.66282">
        <ele>43.497</ele>
        <time>2021-06-23T14:22:18Z</time>
      </trkpt>
      <trkpt lat="47.26697" lon="-1.66265">
        <ele>41.817</ele>
        <time>2021-06-23T14:22:22Z</time>
      </trkpt>
      <trkpt lat="47.26686" lon="-1.66239">
        <ele>40.145</ele>
        <time>2021-06-23T14:22:27Z</time>
      </trkpt>
      <trkpt lat="47.26682" lon="-1.6622">
        <ele>39.055</ele>
        <time>2021-06-23T14:22:32Z</time>
      </trkpt>
      <trkpt lat="47.26668" lon="-1.66202">
        <ele>36.877</ele>
        <time>2021-06-23T14:22:36Z</time>
      </trkpt>
      <trkpt lat="47.26655" lon="-1.66189">
        <ele>34.602</ele>
        <time>2021-06-23T14:22:40Z</time>
      </trkpt>
      <trkpt lat="47.26652" lon="-1.66166">
        <ele>34.503</ele>
        <time>2021-06-23T14:22:45Z</time>
      </trkpt>
      <trkpt lat="47.26645" lon="-1.66153">
        <ele>33.173</ele>
        <time>2021-06-23T14:22:49Z</time>
      </trkpt>
      <trkpt lat="47.26641" lon="-1.66139">
        <ele>33.464</ele>
        <time>2021-06-23T14:22:54Z</time>
      </trkpt>
      <trkpt lat="47.26624" lon="-1.66114">
        <ele>33.992</ele>
        <time>2021-06-23T14:23:01Z</time>
      </trkpt>
      <trkpt lat="47.2661" lon="-1.66098">
        <ele>32.692</ele>
        <time>2021-06-23T14:23:06Z</time>
      </trkpt>
      <trkpt lat="47.26593" lon="-1.66082">
        <ele>31.332</ele>
        <time>2021-06-23T14:23:10Z</time>
      </trkpt>
      <trkpt lat="47.26559" lon="-1.66068">
        <ele>30.457</ele>
        <time>2021-06-23T14:23:21Z</time>
      </trkpt>
      <trkpt lat="47.26547" lon="-1.66051">
        <ele>30.849</ele>
        <time>2021-06-23T14:23:26Z</time>
      </trkpt>
      <trkpt lat="47.26535" lon="-1.66029">
        <ele>30.916</ele>
        <time>2021-06-23T14:23:30Z</time>
      </trkpt>
      <trkpt lat="47.26529" lon="-1.66014">
        <ele>30.787</ele>
        <time>2021-06-23T14:23:35Z</time>
      </trkpt>
      <trkpt lat="47.26524" lon="-1.65984">
        <ele>30.016</ele>
        <time>2021-06-23T14:23:39Z</time>
      </trkpt>
      <trkpt lat="47.26513" lon="-1.65967">
        <ele>28.454</ele>
        <time>2021-06-23T14:23:44Z</time>
      </trkpt>
      <trkpt lat="47.26506" lon="-1.65953">
        <ele>28.251</ele>
        <time>2021-06-23T14:23:49Z</time>
      </trkpt>
      <trkpt lat="47.26502" lon="-1.65931">
        <ele>28.025</ele>
        <time>2021-06-23T14:23:54Z</time>
      </trkpt>
      <trkpt lat="47.26524" lon="-1.65928">
        <ele>28.743</ele>
        <time>2021-06-23T14:24:02Z</time>
      </trkpt>
      <trkpt lat="47.26534" lon="-1.6592">
        <ele>29.403</ele>
        <time>2021-06-23T14:24:07Z</time>
      </trkpt>
      <trkpt lat="47.26541" lon="-1.65911">
        <ele>29.581</ele>
        <time>2021-06-23T14:24:12Z</time>
      </trkpt>
      <trkpt lat="47.26546" lon="-1.65898">
        <ele>29.19</ele>
        <time>2021-06-23T14:24:22Z</time>
      </trkpt>
      <trkpt lat="47.26556" lon="-1.65881">
        <ele>28.462</ele>
        <time>2021-06-23T14:24:26Z</time>
      </trkpt>
      <trkpt lat="47.26563" lon="-1.65865">
        <ele>28.586</ele>
        <time>2021-06-23T14:24:31Z</time>
      </trkpt>
      <trkpt lat="47.26572" lon="-1.65862">
        <ele>29.386</ele>
        <time>2021-06-23T14:24:36Z</time>
      </trkpt>
      <trkpt lat="47.26609" lon="-1.6586">
        <ele>32.076</ele>
        <time>2021-06-23T14:24:52Z</time>
      </trkpt>
      <trkpt lat="47.26618" lon="-1.65854">
        <ele>32.63</ele>
        <time>2021-06-23T14:25:16Z</time>
      </trkpt>
      <trkpt lat="47.2663" lon="-1.6585">
        <ele>33.136</ele>
        <time>2021-06-23T14:25:21Z</time>
      </trkpt>
      <trkpt lat="47.26669" lon="-1.65852">
        <ele>34.509</ele>
        <time>2021-06-23T14:25:52Z</time>
      </trkpt>
      <trkpt lat="47.26682" lon="-1.65854">
        <ele>34.976</ele>
        <time>2021-06-23T14:25:57Z</time>
      </trkpt>
      <trkpt lat="47.26691" lon="-1.65845">
        <ele>33.215</ele>
        <time>2021-06-23T14:26:04Z</time>
      </trkpt>
      <trkpt lat="47.26702" lon="-1.65837">
        <ele>31.691</ele>
        <time>2021-06-23T14:26:09Z</time>
      </trkpt>
      <trkpt lat="47.26718" lon="-1.6584">
        <ele>32.383</ele>
        <time>2021-06-23T14:26:13Z</time>
      </trkpt>
      <trkpt lat="47.26726" lon="-1.65833">
        <ele>31.186</ele>
        <time>2021-06-23T14:26:18Z</time>
      </trkpt>
      <trkpt lat="47.26744" lon="-1.65827">
        <ele>30.139</ele>
        <time>2021-06-23T14:26:34Z</time>
      </trkpt>
      <trkpt lat="47.26753" lon="-1.65819">
        <ele>29.821</ele>
        <time>2021-06-23T14:26:41Z</time>
      </trkpt>
      <trkpt lat="47.26762" lon="-1.65804">
        <ele>30.191</ele>
        <time>2021-06-23T14:26:48Z</time>
      </trkpt>
      <trkpt lat="47.26787" lon="-1.65784">
        <ele>30.102</ele>
        <time>2021-06-23T14:26:56Z</time>
      </trkpt>
      <trkpt lat="47.26794" lon="-1.65775">
        <ele>29.549</ele>
        <time>2021-06-23T14:27:01Z</time>
      </trkpt>
      <trkpt lat="47.26804" lon="-1.6577">
        <ele>29.496</ele>
        <time>2021-06-23T14:27:05Z</time>
      </trkpt>
      <trkpt lat="47.26814" lon="-1.6576">
        <ele>28.984</ele>
        <time>2021-06-23T14:27:14Z</time>
      </trkpt>
      <trkpt lat="47.26821" lon="-1.65748">
        <ele>29.147</ele>
        <time>2021-06-23T14:27:24Z</time>
      </trkpt>
      <trkpt lat="47.26833" lon="-1.65721">
        <ele>29.205</ele>
        <time>2021-06-23T14:27:34Z</time>
      </trkpt>
      <trkpt lat="47.26848" lon="-1.65704">
        <ele>30.445</ele>
        <time>2021-06-23T14:27:54Z</time>
      </trkpt>
      <trkpt lat="47.26853" lon="-1.65693">
        <ele>30.886</ele>
        <time>2021-06-23T14:27:59Z</time>
      </trkpt>
      <trkpt lat="47.26857" lon="-1.6568">
        <ele>30.583</ele>
        <time>2021-06-23T14:28:04Z</time>
      </trkpt>
      <trkpt lat="47.26855" lon="-1.6565">
        <ele>28.543</ele>
        <time>2021-06-23T14:28:29Z</time>
      </trkpt>
      <trkpt lat="47.26857" lon="-1.65616">
        <ele>27.92</ele>
        <time>2021-06-23T14:28:53Z</time>
      </trkpt>
      <trkpt lat="47.26855" lon="-1.65602">
        <ele>27.949</ele>
        <time>2021-06-23T14:28:57Z</time>
      </trkpt>
      <trkpt lat="47.2685" lon="-1.65591">
        <ele>27.612</ele>
        <time>2021-06-23T14:29:02Z</time>
      </trkpt>
      <trkpt lat="47.26845" lon="-1.65574">
        <ele>27.137</ele>
        <time>2021-06-23T14:29:07Z</time>
      </trkpt>
      <trkpt lat="47.26845" lon="-1.65554">
        <ele>27.055</ele>
        <time>2021-06-23T14:29:12Z</time>
      </trkpt>
      <trkpt lat="47.26836" lon="-1.65541">
        <ele>27.185</ele>
        <time>2021-06-23T14:29:35Z</time>
      </trkpt>
      <trkpt lat="47.26827" lon="-1.65536">
        <ele>27.395</ele>
        <time>2021-06-23T14:29:41Z</time>
      </trkpt>
      <trkpt lat="47.26801" lon="-1.65532">
        <ele>27.97</ele>
        <time>2021-06-23T14:29:52Z</time>
      </trkpt>
      <trkpt lat="47.26788" lon="-1.65534">
        <ele>29.925</ele>
        <time>2021-06-23T14:29:58Z</time>
      </trkpt>
      <trkpt lat="47.26774" lon="-1.65532">
        <ele>32.095</ele>
        <time>2021-06-23T14:30:02Z</time>
      </trkpt>
      <trkpt lat="47.26768" lon="-1.65518">
        <ele>33.005</ele>
        <time>2021-06-23T14:30:11Z</time>
      </trkpt>
      <trkpt lat="47.26765" lon="-1.65504">
        <ele>33.565</ele>
        <time>2021-06-23T14:30:18Z</time>
      </trkpt>
      <trkpt lat="47.26762" lon="-1.65476">
        <ele>33.682</ele>
        <time>2021-06-23T14:30:29Z</time>
      </trkpt>
      <trkpt lat="47.26758" lon="-1.65459">
        <ele>33.856</ele>
        <time>2021-06-23T14:30:34Z</time>
      </trkpt>
      <trkpt lat="47.26757" lon="-1.65443">
        <ele>33.641</ele>
        <time>2021-06-23T14:30:38Z</time>
      </trkpt>
      <trkpt lat="47.26753" lon="-1.65427">
        <ele>34.232</ele>
        <time>2021-06-23T14:30:44Z</time>
      </trkpt>
      <trkpt lat="47.26747" lon="-1.65391">
        <ele>35.093</ele>
        <time>2021-06-23T14:30:53Z</time>
      </trkpt>
      <trkpt lat="47.26751" lon="-1.65358">
        <ele>33.732</ele>
        <time>2021-06-23T14:31:02Z</time>
      </trkpt>
      <trkpt lat="47.26756" lon="-1.65343">
        <ele>32.529</ele>
        <time>2021-06-23T14:31:09Z</time>
      </trkpt>
      <trkpt lat="47.26758" lon="-1.6531">
        <ele>31.369</ele>
        <time>2021-06-23T14:31:18Z</time>
      </trkpt>
      <trkpt lat="47.26772" lon="-1.65261">
        <ele>29.768</ele>
        <time>2021-06-23T14:31:27Z</time>
      </trkpt>
      <trkpt lat="47.2677" lon="-1.65243">
        <ele>30.302</ele>
        <time>2021-06-23T14:31:31Z</time>
      </trkpt>
      <trkpt lat="47.26775" lon="-1.65229">
        <ele>30.179</ele>
        <time>2021-06-23T14:31:37Z</time>
      </trkpt>
      <trkpt lat="47.26786" lon="-1.6521">
        <ele>30.229</ele>
        <time>2021-06-23T14:31:43Z</time>
      </trkpt>
      <trkpt lat="47.26796" lon="-1.65184">
        <ele>30.134</ele>
        <time>2021-06-23T14:31:47Z</time>
      </trkpt>
      <trkpt lat="47.26818" lon="-1.65145">
        <ele>29.614</ele>
        <time>2021-06-23T14:31:57Z</time>
      </trkpt>
      <trkpt lat="47.26834" lon="-1.65087">
        <ele>30.339</ele>
        <time>2021-06-23T14:32:06Z</time>
      </trkpt>
      <trkpt lat="47.2684" lon="-1.6506">
        <ele>29.669</ele>
        <time>2021-06-23T14:32:12Z</time>
      </trkpt>
      <trkpt lat="47.2686" lon="-1.64998">
        <ele>26.694</ele>
        <time>2021-06-23T14:32:25Z</time>
      </trkpt>
      <trkpt lat="47.26873" lon="-1.64957">
        <ele>28.489</ele>
        <time>2021-06-23T14:32:34Z</time>
      </trkpt>
      <trkpt lat="47.26881" lon="-1.64938">
        <ele>29.494</ele>
        <time>2021-06-23T14:32:38Z</time>
      </trkpt>
      <trkpt lat="47.26883" lon="-1.64917">
        <ele>30.504</ele>
        <time>2021-06-23T14:32:42Z</time>
      </trkpt>
      <trkpt lat="47.26891" lon="-1.64896">
        <ele>30.486</ele>
        <time>2021-06-23T14:32:47Z</time>
      </trkpt>
      <trkpt lat="47.26906" lon="-1.64878">
        <ele>28.547</ele>
        <time>2021-06-23T14:32:52Z</time>
      </trkpt>
      <trkpt lat="47.26924" lon="-1.64864">
        <ele>27.494</ele>
        <time>2021-06-23T14:32:58Z</time>
      </trkpt>
      <trkpt lat="47.26937" lon="-1.64848">
        <ele>27.094</ele>
        <time>2021-06-23T14:33:02Z</time>
      </trkpt>
      <trkpt lat="47.26943" lon="-1.64821">
        <ele>27.539</ele>
        <time>2021-06-23T14:33:07Z</time>
      </trkpt>
      <trkpt lat="47.26959" lon="-1.64773">
        <ele>26.599</ele>
        <time>2021-06-23T14:33:17Z</time>
      </trkpt>
      <trkpt lat="47.26966" lon="-1.64737">
        <ele>26.605</ele>
        <time>2021-06-23T14:33:21Z</time>
      </trkpt>
      <trkpt lat="47.26971" lon="-1.64654">
        <ele>29.205</ele>
        <time>2021-06-23T14:33:34Z</time>
      </trkpt>
      <trkpt lat="47.2697" lon="-1.64636">
        <ele>29.544</ele>
        <time>2021-06-23T14:33:39Z</time>
      </trkpt>
      <trkpt lat="47.26967" lon="-1.64609">
        <ele>30</ele>
        <time>2021-06-23T14:33:43Z</time>
      </trkpt>
      <trkpt lat="47.26968" lon="-1.64592">
        <ele>29.867</ele>
        <time>2021-06-23T14:33:47Z</time>
      </trkpt>
      <trkpt lat="47.26992" lon="-1.64532">
        <ele>27.665</ele>
        <time>2021-06-23T14:33:57Z</time>
      </trkpt>
      <trkpt lat="47.27001" lon="-1.6449">
        <ele>27.186</ele>
        <time>2021-06-23T14:34:06Z</time>
      </trkpt>
      <trkpt lat="47.27" lon="-1.64473">
        <ele>27.438</ele>
        <time>2021-06-23T14:34:11Z</time>
      </trkpt>
      <trkpt lat="47.27004" lon="-1.64422">
        <ele>27.275</ele>
        <time>2021-06-23T14:34:36Z</time>
      </trkpt>
      <trkpt lat="47.26999" lon="-1.64401">
        <ele>28.115</ele>
        <time>2021-06-23T14:34:40Z</time>
      </trkpt>
      <trkpt lat="47.26988" lon="-1.64375">
        <ele>29.842</ele>
        <time>2021-06-23T14:34:49Z</time>
      </trkpt>
      <trkpt lat="47.26984" lon="-1.64346">
        <ele>29.784</ele>
        <time>2021-06-23T14:35:00Z</time>
      </trkpt>
      <trkpt lat="47.26984" lon="-1.64331">
        <ele>29.499</ele>
        <time>2021-06-23T14:35:12Z</time>
      </trkpt>
      <trkpt lat="47.26977" lon="-1.64317">
        <ele>29.969</ele>
        <time>2021-06-23T14:35:17Z</time>
      </trkpt>
      <trkpt lat="47.26968" lon="-1.64287">
        <ele>30.468</ele>
        <time>2021-06-23T14:35:26Z</time>
      </trkpt>
      <trkpt lat="47.26961" lon="-1.64278">
        <ele>31.292</ele>
        <time>2021-06-23T14:35:30Z</time>
      </trkpt>
      <trkpt lat="47.26946" lon="-1.64247">
        <ele>32.054</ele>
        <time>2021-06-23T14:35:40Z</time>
      </trkpt>
      <trkpt lat="47.26936" lon="-1.64237">
        <ele>32.626</ele>
        <time>2021-06-23T14:35:45Z</time>
      </trkpt>
      <trkpt lat="47.26921" lon="-1.64209">
        <ele>33.518</ele>
        <time>2021-06-23T14:35:55Z</time>
      </trkpt>
      <trkpt lat="47.26914" lon="-1.64191">
        <ele>33.573</ele>
        <time>2021-06-23T14:35:59Z</time>
      </trkpt>
      <trkpt lat="47.2691" lon="-1.64175">
        <ele>33.156</ele>
        <time>2021-06-23T14:36:03Z</time>
      </trkpt>
      <trkpt lat="47.26895" lon="-1.64137">
        <ele>33.22</ele>
        <time>2021-06-23T14:36:14Z</time>
      </trkpt>
      <trkpt lat="47.26889" lon="-1.64116">
        <ele>32.384</ele>
        <time>2021-06-23T14:36:18Z</time>
      </trkpt>
      <trkpt lat="47.26854" lon="-1.64052">
        <ele>29.31</ele>
        <time>2021-06-23T14:36:43Z</time>
      </trkpt>
      <trkpt lat="47.26846" lon="-1.64043">
        <ele>27.575</ele>
        <time>2021-06-23T14:36:51Z</time>
      </trkpt>
      <trkpt lat="47.26837" lon="-1.64036">
        <ele>26.719</ele>
        <time>2021-06-23T14:36:56Z</time>
      </trkpt>
      <trkpt lat="47.26831" lon="-1.64025">
        <ele>25.774</ele>
        <time>2021-06-23T14:37:01Z</time>
      </trkpt>
      <trkpt lat="47.26815" lon="-1.64006">
        <ele>24.287</ele>
        <time>2021-06-23T14:37:15Z</time>
      </trkpt>
      <trkpt lat="47.26805" lon="-1.64003">
        <ele>23.835</ele>
        <time>2021-06-23T14:37:20Z</time>
      </trkpt>
      <trkpt lat="47.26769" lon="-1.63999">
        <ele>23.386</ele>
        <time>2021-06-23T14:37:44Z</time>
      </trkpt>
      <trkpt lat="47.26759" lon="-1.64002">
        <ele>23.002</ele>
        <time>2021-06-23T14:37:59Z</time>
      </trkpt>
      <trkpt lat="47.26741" lon="-1.63999">
        <ele>22.619</ele>
        <time>2021-06-23T14:38:24Z</time>
      </trkpt>
      <trkpt lat="47.26732" lon="-1.63995">
        <ele>22.429</ele>
        <time>2021-06-23T14:38:40Z</time>
      </trkpt>
      <trkpt lat="47.26723" lon="-1.63986">
        <ele>22.182</ele>
        <time>2021-06-23T14:38:53Z</time>
      </trkpt>
      <trkpt lat="47.26719" lon="-1.63965">
        <ele>22.057</ele>
        <time>2021-06-23T14:38:57Z</time>
      </trkpt>
      <trkpt lat="47.26717" lon="-1.63921">
        <ele>22.136</ele>
        <time>2021-06-23T14:39:07Z</time>
      </trkpt>
      <trkpt lat="47.26726" lon="-1.63875">
        <ele>22.722</ele>
        <time>2021-06-23T14:39:15Z</time>
      </trkpt>
      <trkpt lat="47.26725" lon="-1.63858">
        <ele>22.036</ele>
        <time>2021-06-23T14:39:20Z</time>
      </trkpt>
      <trkpt lat="47.26731" lon="-1.63833">
        <ele>23.249</ele>
        <time>2021-06-23T14:39:24Z</time>
      </trkpt>
      <trkpt lat="47.26731" lon="-1.63807">
        <ele>22.332</ele>
        <time>2021-06-23T14:39:29Z</time>
      </trkpt>
      <trkpt lat="47.26737" lon="-1.63754">
        <ele>22.427</ele>
        <time>2021-06-23T14:39:39Z</time>
      </trkpt>
      <trkpt lat="47.26746" lon="-1.63719">
        <ele>23.753</ele>
        <time>2021-06-23T14:39:43Z</time>
      </trkpt>
      <trkpt lat="47.26769" lon="-1.63674">
        <ele>26.205</ele>
        <time>2021-06-23T14:39:53Z</time>
      </trkpt>
      <trkpt lat="47.2677" lon="-1.6366">
        <ele>25.406</ele>
        <time>2021-06-23T14:39:58Z</time>
      </trkpt>
      <trkpt lat="47.26773" lon="-1.63644">
        <ele>24.928</ele>
        <time>2021-06-23T14:40:04Z</time>
      </trkpt>
      <trkpt lat="47.26807" lon="-1.63603">
        <ele>27.433</ele>
        <time>2021-06-23T14:40:14Z</time>
      </trkpt>
      <trkpt lat="47.26819" lon="-1.6358">
        <ele>27.62</ele>
        <time>2021-06-23T14:40:19Z</time>
      </trkpt>
      <trkpt lat="47.2685" lon="-1.63493">
        <ele>26.61</ele>
        <time>2021-06-23T14:40:32Z</time>
      </trkpt>
      <trkpt lat="47.26859" lon="-1.63475">
        <ele>26.655</ele>
        <time>2021-06-23T14:40:37Z</time>
      </trkpt>
      <trkpt lat="47.26867" lon="-1.63448">
        <ele>26.198</ele>
        <time>2021-06-23T14:40:42Z</time>
      </trkpt>
      <trkpt lat="47.26875" lon="-1.63413">
        <ele>24.888</ele>
        <time>2021-06-23T14:40:47Z</time>
      </trkpt>
      <trkpt lat="47.26876" lon="-1.6338">
        <ele>23.027</ele>
        <time>2021-06-23T14:40:52Z</time>
      </trkpt>
      <trkpt lat="47.26884" lon="-1.63343">
        <ele>22.934</ele>
        <time>2021-06-23T14:41:01Z</time>
      </trkpt>
      <trkpt lat="47.2689" lon="-1.63289">
        <ele>22.177</ele>
        <time>2021-06-23T14:41:10Z</time>
      </trkpt>
      <trkpt lat="47.26891" lon="-1.63267">
        <ele>21.709</ele>
        <time>2021-06-23T14:41:14Z</time>
      </trkpt>
      <trkpt lat="47.26896" lon="-1.63247">
        <ele>21.8</ele>
        <time>2021-06-23T14:41:19Z</time>
      </trkpt>
      <trkpt lat="47.26899" lon="-1.63202">
        <ele>21.114</ele>
        <time>2021-06-23T14:41:24Z</time>
      </trkpt>
      <trkpt lat="47.26875" lon="-1.63118">
        <ele>20.183</ele>
        <time>2021-06-23T14:41:34Z</time>
      </trkpt>
      <trkpt lat="47.26861" lon="-1.63082">
        <ele>20.208</ele>
        <time>2021-06-23T14:41:39Z</time>
      </trkpt>
      <trkpt lat="47.26843" lon="-1.63047">
        <ele>19.335</ele>
        <time>2021-06-23T14:41:44Z</time>
      </trkpt>
      <trkpt lat="47.26817" lon="-1.63027">
        <ele>19.433</ele>
        <time>2021-06-23T14:41:49Z</time>
      </trkpt>
      <trkpt lat="47.26789" lon="-1.63024">
        <ele>18.918</ele>
        <time>2021-06-23T14:41:54Z</time>
      </trkpt>
      <trkpt lat="47.26768" lon="-1.63007">
        <ele>19.94</ele>
        <time>2021-06-23T14:41:59Z</time>
      </trkpt>
      <trkpt lat="47.26761" lon="-1.6297">
        <ele>19.273</ele>
        <time>2021-06-23T14:42:04Z</time>
      </trkpt>
      <trkpt lat="47.26778" lon="-1.62905">
        <ele>21.509</ele>
        <time>2021-06-23T14:42:14Z</time>
      </trkpt>
      <trkpt lat="47.2679" lon="-1.62873">
        <ele>22.616</ele>
        <time>2021-06-23T14:42:19Z</time>
      </trkpt>
      <trkpt lat="47.26781" lon="-1.62815">
        <ele>23.033</ele>
        <time>2021-06-23T14:42:29Z</time>
      </trkpt>
      <trkpt lat="47.26774" lon="-1.6276">
        <ele>21.72</ele>
        <time>2021-06-23T14:42:37Z</time>
      </trkpt>
      <trkpt lat="47.26772" lon="-1.62696">
        <ele>19.628</ele>
        <time>2021-06-23T14:42:48Z</time>
      </trkpt>
      <trkpt lat="47.26765" lon="-1.62656">
        <ele>16.493</ele>
        <time>2021-06-23T14:42:54Z</time>
      </trkpt>
      <trkpt lat="47.26765" lon="-1.62618">
        <ele>16.708</ele>
        <time>2021-06-23T14:42:59Z</time>
      </trkpt>
      <trkpt lat="47.26758" lon="-1.62582">
        <ele>19.087</ele>
        <time>2021-06-23T14:43:03Z</time>
      </trkpt>
      <trkpt lat="47.26762" lon="-1.6256">
        <ele>18.19</ele>
        <time>2021-06-23T14:43:08Z</time>
      </trkpt>
      <trkpt lat="47.26767" lon="-1.62518">
        <ele>17.272</ele>
        <time>2021-06-23T14:43:13Z</time>
      </trkpt>
      <trkpt lat="47.26769" lon="-1.62479">
        <ele>16.608</ele>
        <time>2021-06-23T14:43:18Z</time>
      </trkpt>
      <trkpt lat="47.26777" lon="-1.62441">
        <ele>16.649</ele>
        <time>2021-06-23T14:43:23Z</time>
      </trkpt>
      <trkpt lat="47.26784" lon="-1.62401">
        <ele>16.552</ele>
        <time>2021-06-23T14:43:28Z</time>
      </trkpt>
      <trkpt lat="47.26781" lon="-1.62367">
        <ele>15.725</ele>
        <time>2021-06-23T14:43:33Z</time>
      </trkpt>
      <trkpt lat="47.2676" lon="-1.62316">
        <ele>16.684</ele>
        <time>2021-06-23T14:43:43Z</time>
      </trkpt>
      <trkpt lat="47.26761" lon="-1.62299">
        <ele>16.258</ele>
        <time>2021-06-23T14:43:48Z</time>
      </trkpt>
      <trkpt lat="47.26767" lon="-1.62284">
        <ele>15.385</ele>
        <time>2021-06-23T14:43:54Z</time>
      </trkpt>
      <trkpt lat="47.26757" lon="-1.62272">
        <ele>15.965</ele>
        <time>2021-06-23T14:43:58Z</time>
      </trkpt>
      <trkpt lat="47.2675" lon="-1.6225">
        <ele>15.903</ele>
        <time>2021-06-23T14:44:02Z</time>
      </trkpt>
      <trkpt lat="47.26747" lon="-1.6223">
        <ele>16.228</ele>
        <time>2021-06-23T14:44:07Z</time>
      </trkpt>
      <trkpt lat="47.26749" lon="-1.62194">
        <ele>16.322</ele>
        <time>2021-06-23T14:44:11Z</time>
      </trkpt>
      <trkpt lat="47.26749" lon="-1.62167">
        <ele>16.166</ele>
        <time>2021-06-23T14:44:15Z</time>
      </trkpt>
      <trkpt lat="47.26735" lon="-1.62071">
        <ele>16.895</ele>
        <time>2021-06-23T14:44:30Z</time>
      </trkpt>
      <trkpt lat="47.26734" lon="-1.62033">
        <ele>17.15</ele>
        <time>2021-06-23T14:44:35Z</time>
      </trkpt>
      <trkpt lat="47.26737" lon="-1.61994">
        <ele>16.97</ele>
        <time>2021-06-23T14:44:40Z</time>
      </trkpt>
      <trkpt lat="47.26746" lon="-1.61921">
        <ele>16</ele>
        <time>2021-06-23T14:44:50Z</time>
      </trkpt>
      <trkpt lat="47.26755" lon="-1.61889">
        <ele>15.73</ele>
        <time>2021-06-23T14:44:55Z</time>
      </trkpt>
      <trkpt lat="47.26754" lon="-1.61848">
        <ele>15.6</ele>
        <time>2021-06-23T14:45:00Z</time>
      </trkpt>
      <trkpt lat="47.26732" lon="-1.61823">
        <ele>15.761</ele>
        <time>2021-06-23T14:45:05Z</time>
      </trkpt>
      <trkpt lat="47.26712" lon="-1.61806">
        <ele>15.537</ele>
        <time>2021-06-23T14:45:10Z</time>
      </trkpt>
      <trkpt lat="47.26694" lon="-1.61797">
        <ele>15.371</ele>
        <time>2021-06-23T14:45:15Z</time>
      </trkpt>
      <trkpt lat="47.26666" lon="-1.61785">
        <ele>14.757</ele>
        <time>2021-06-23T14:45:20Z</time>
      </trkpt>
      <trkpt lat="47.26642" lon="-1.61771">
        <ele>15.455</ele>
        <time>2021-06-23T14:45:25Z</time>
      </trkpt>
      <trkpt lat="47.26618" lon="-1.61759">
        <ele>16.385</ele>
        <time>2021-06-23T14:45:30Z</time>
      </trkpt>
      <trkpt lat="47.26597" lon="-1.61745">
        <ele>19.152</ele>
        <time>2021-06-23T14:45:35Z</time>
      </trkpt>
      <trkpt lat="47.2658" lon="-1.61724">
        <ele>18.625</ele>
        <time>2021-06-23T14:45:40Z</time>
      </trkpt>
      <trkpt lat="47.26543" lon="-1.61634">
        <ele>14.4</ele>
        <time>2021-06-23T14:45:55Z</time>
      </trkpt>
      <trkpt lat="47.26531" lon="-1.61615">
        <ele>15.503</ele>
        <time>2021-06-23T14:46:00Z</time>
      </trkpt>
      <trkpt lat="47.26511" lon="-1.61598">
        <ele>16.951</ele>
        <time>2021-06-23T14:46:04Z</time>
      </trkpt>
      <trkpt lat="47.26491" lon="-1.61591">
        <ele>16.926</ele>
        <time>2021-06-23T14:46:08Z</time>
      </trkpt>
      <trkpt lat="47.26453" lon="-1.61568">
        <ele>15.075</ele>
        <time>2021-06-23T14:46:18Z</time>
      </trkpt>
      <trkpt lat="47.26433" lon="-1.61545">
        <ele>15.113</ele>
        <time>2021-06-23T14:46:25Z</time>
      </trkpt>
      <trkpt lat="47.26413" lon="-1.61518">
        <ele>14.725</ele>
        <time>2021-06-23T14:46:30Z</time>
      </trkpt>
      <trkpt lat="47.26391" lon="-1.61498">
        <ele>13.811</ele>
        <time>2021-06-23T14:46:35Z</time>
      </trkpt>
      <trkpt lat="47.26372" lon="-1.61476">
        <ele>14.605</ele>
        <time>2021-06-23T14:46:39Z</time>
      </trkpt>
      <trkpt lat="47.26344" lon="-1.61455">
        <ele>15.227</ele>
        <time>2021-06-23T14:46:48Z</time>
      </trkpt>
      <trkpt lat="47.26328" lon="-1.61413">
        <ele>13.821</ele>
        <time>2021-06-23T14:46:57Z</time>
      </trkpt>
      <trkpt lat="47.26313" lon="-1.6136">
        <ele>13.056</ele>
        <time>2021-06-23T14:47:07Z</time>
      </trkpt>
      <trkpt lat="47.26311" lon="-1.61334">
        <ele>13.039</ele>
        <time>2021-06-23T14:47:11Z</time>
      </trkpt>
      <trkpt lat="47.26316" lon="-1.61273">
        <ele>13</ele>
        <time>2021-06-23T14:47:21Z</time>
      </trkpt>
      <trkpt lat="47.26321" lon="-1.61238">
        <ele>13</ele>
        <time>2021-06-23T14:47:27Z</time>
      </trkpt>
      <trkpt lat="47.26331" lon="-1.61204">
        <ele>13</ele>
        <time>2021-06-23T14:47:31Z</time>
      </trkpt>
      <trkpt lat="47.26347" lon="-1.61177">
        <ele>13</ele>
        <time>2021-06-23T14:47:36Z</time>
      </trkpt>
      <trkpt lat="47.26371" lon="-1.61129">
        <ele>13</ele>
        <time>2021-06-23T14:47:46Z</time>
      </trkpt>
      <trkpt lat="47.26378" lon="-1.61103">
        <ele>13</ele>
        <time>2021-06-23T14:47:50Z</time>
      </trkpt>
      <trkpt lat="47.2639" lon="-1.61076">
        <ele>13</ele>
        <time>2021-06-23T14:47:56Z</time>
      </trkpt>
      <trkpt lat="47.26394" lon="-1.61049">
        <ele>13</ele>
        <time>2021-06-23T14:48:01Z</time>
      </trkpt>
      <trkpt lat="47.26395" lon="-1.61008">
        <ele>13</ele>
        <time>2021-06-23T14:48:07Z</time>
      </trkpt>
      <trkpt lat="47.26392" lon="-1.60965">
        <ele>13</ele>
        <time>2021-06-23T14:48:13Z</time>
      </trkpt>
      <trkpt lat="47.26386" lon="-1.60926">
        <ele>13</ele>
        <time>2021-06-23T14:48:19Z</time>
      </trkpt>
      <trkpt lat="47.26386" lon="-1.60889">
        <ele>13.044</ele>
        <time>2021-06-23T14:48:24Z</time>
      </trkpt>
      <trkpt lat="47.26377" lon="-1.60861">
        <ele>13.02</ele>
        <time>2021-06-23T14:48:28Z</time>
      </trkpt>
      <trkpt lat="47.26364" lon="-1.60841">
        <ele>13.074</ele>
        <time>2021-06-23T14:48:32Z</time>
      </trkpt>
      <trkpt lat="47.26355" lon="-1.60842">
        <ele>13.16</ele>
        <time>2021-06-23T14:48:37Z</time>
      </trkpt>
      <trkpt lat="47.26325" lon="-1.60865">
        <ele>14.578</ele>
        <time>2021-06-23T14:48:48Z</time>
      </trkpt>
      <trkpt lat="47.26328" lon="-1.60842">
        <ele>13.685</ele>
        <time>2021-06-23T14:48:54Z</time>
      </trkpt>
      <trkpt lat="47.26337" lon="-1.60812">
        <ele>12.734</ele>
        <time>2021-06-23T14:48:58Z</time>
      </trkpt>
      <trkpt lat="47.26362" lon="-1.60717">
        <ele>12.148</ele>
        <time>2021-06-23T14:49:13Z</time>
      </trkpt>
      <trkpt lat="47.26366" lon="-1.60683">
        <ele>13.477</ele>
        <time>2021-06-23T14:49:18Z</time>
      </trkpt>
      <trkpt lat="47.26361" lon="-1.60659">
        <ele>14.544</ele>
        <time>2021-06-23T14:49:22Z</time>
      </trkpt>
      <trkpt lat="47.26341" lon="-1.60647">
        <ele>12.973</ele>
        <time>2021-06-23T14:49:26Z</time>
      </trkpt>
      <trkpt lat="47.26319" lon="-1.6065">
        <ele>11.532</ele>
        <time>2021-06-23T14:49:31Z</time>
      </trkpt>
      <trkpt lat="47.26301" lon="-1.60638">
        <ele>10.593</ele>
        <time>2021-06-23T14:49:36Z</time>
      </trkpt>
      <trkpt lat="47.26287" lon="-1.60626">
        <ele>10.166</ele>
        <time>2021-06-23T14:49:40Z</time>
      </trkpt>
      <trkpt lat="47.26281" lon="-1.60612">
        <ele>10.65</ele>
        <time>2021-06-23T14:49:44Z</time>
      </trkpt>
      <trkpt lat="47.26273" lon="-1.60619">
        <ele>10.673</ele>
        <time>2021-06-23T14:49:49Z</time>
      </trkpt>
      <trkpt lat="47.26272" lon="-1.60641">
        <ele>10.69</ele>
        <time>2021-06-23T14:49:53Z</time>
      </trkpt>
      <trkpt lat="47.26267" lon="-1.60659">
        <ele>11.062</ele>
        <time>2021-06-23T14:49:58Z</time>
      </trkpt>
      <trkpt lat="47.26262" lon="-1.60689">
        <ele>11.61</ele>
        <time>2021-06-23T14:50:03Z</time>
      </trkpt>
      <trkpt lat="47.26245" lon="-1.60718">
        <ele>14.493</ele>
        <time>2021-06-23T14:50:07Z</time>
      </trkpt>
      <trkpt lat="47.2623" lon="-1.60723">
        <ele>15.811</ele>
        <time>2021-06-23T14:50:13Z</time>
      </trkpt>
      <trkpt lat="47.26209" lon="-1.60711">
        <ele>15.412</ele>
        <time>2021-06-23T14:50:17Z</time>
      </trkpt>
      <trkpt lat="47.2617" lon="-1.60705">
        <ele>15.887</ele>
        <time>2021-06-23T14:50:27Z</time>
      </trkpt>
      <trkpt lat="47.26154" lon="-1.60699">
        <ele>15.513</ele>
        <time>2021-06-23T14:50:33Z</time>
      </trkpt>
      <trkpt lat="47.26138" lon="-1.60697">
        <ele>16.085</ele>
        <time>2021-06-23T14:50:38Z</time>
      </trkpt>
      <trkpt lat="47.26116" lon="-1.60704">
        <ele>18.239</ele>
        <time>2021-06-23T14:50:48Z</time>
      </trkpt>
      <trkpt lat="47.26095" lon="-1.60713">
        <ele>20.363</ele>
        <time>2021-06-23T14:50:57Z</time>
      </trkpt>
      <trkpt lat="47.26076" lon="-1.60716">
        <ele>21.344</ele>
        <time>2021-06-23T14:51:10Z</time>
      </trkpt>
      <trkpt lat="47.26066" lon="-1.60714">
        <ele>21.342</ele>
        <time>2021-06-23T14:51:21Z</time>
      </trkpt>
      <trkpt lat="47.26049" lon="-1.60705">
        <ele>20.914</ele>
        <time>2021-06-23T14:51:25Z</time>
      </trkpt>
      <trkpt lat="47.26038" lon="-1.60702">
        <ele>20.963</ele>
        <time>2021-06-23T14:51:30Z</time>
      </trkpt>
      <trkpt lat="47.26028" lon="-1.60702">
        <ele>21.321</ele>
        <time>2021-06-23T14:51:46Z</time>
      </trkpt>
      <trkpt lat="47.26017" lon="-1.60699">
        <ele>21.345</ele>
        <time>2021-06-23T14:52:31Z</time>
      </trkpt>
      <trkpt lat="47.26013" lon="-1.60687">
        <ele>20.425</ele>
        <time>2021-06-23T14:52:49Z</time>
      </trkpt>
      <trkpt lat="47.26009" lon="-1.60666">
        <ele>20.194</ele>
        <time>2021-06-23T14:52:55Z</time>
      </trkpt>
      <trkpt lat="47.26002" lon="-1.60639">
        <ele>22.485</ele>
        <time>2021-06-23T14:52:59Z</time>
      </trkpt>
      <trkpt lat="47.25995" lon="-1.60631">
        <ele>23.205</ele>
        <time>2021-06-23T14:53:04Z</time>
      </trkpt>
      <trkpt lat="47.2598" lon="-1.60625">
        <ele>23.788</ele>
        <time>2021-06-23T14:53:08Z</time>
      </trkpt>
      <trkpt lat="47.2597" lon="-1.60628">
        <ele>23.988</ele>
        <time>2021-06-23T14:53:13Z</time>
      </trkpt>
      <trkpt lat="47.25945" lon="-1.60642">
        <ele>23.925</ele>
        <time>2021-06-23T14:53:22Z</time>
      </trkpt>
      <trkpt lat="47.25934" lon="-1.60639">
        <ele>24.572</ele>
        <time>2021-06-23T14:53:26Z</time>
      </trkpt>
      <trkpt lat="47.25928" lon="-1.60625">
        <ele>26.449</ele>
        <time>2021-06-23T14:53:30Z</time>
      </trkpt>
      <trkpt lat="47.25919" lon="-1.60616">
        <ele>28.036</ele>
        <time>2021-06-23T14:53:37Z</time>
      </trkpt>
      <trkpt lat="47.25911" lon="-1.60589">
        <ele>30.118</ele>
        <time>2021-06-23T14:53:47Z</time>
      </trkpt>
      <trkpt lat="47.25906" lon="-1.60577">
        <ele>30.681</ele>
        <time>2021-06-23T14:53:53Z</time>
      </trkpt>
      <trkpt lat="47.25901" lon="-1.60561">
        <ele>31.161</ele>
        <time>2021-06-23T14:53:57Z</time>
      </trkpt>
      <trkpt lat="47.25895" lon="-1.60547">
        <ele>31.678</ele>
        <time>2021-06-23T14:54:03Z</time>
      </trkpt>
      <trkpt lat="47.25873" lon="-1.60472">
        <ele>34.778</ele>
        <time>2021-06-23T14:54:29Z</time>
      </trkpt>
      <trkpt lat="47.25872" lon="-1.60454">
        <ele>35.282</ele>
        <time>2021-06-23T14:54:42Z</time>
      </trkpt>
      <trkpt lat="47.25858" lon="-1.60405">
        <ele>37.518</ele>
        <time>2021-06-23T14:54:49Z</time>
      </trkpt>
      <trkpt lat="47.25849" lon="-1.6038">
        <ele>38.617</ele>
        <time>2021-06-23T14:54:53Z</time>
      </trkpt>
      <trkpt lat="47.25846" lon="-1.60362">
        <ele>39.351</ele>
        <time>2021-06-23T14:54:55Z</time>
      </trkpt>
      <trkpt lat="47.25839" lon="-1.60351">
        <ele>40.071</ele>
        <time>2021-06-23T14:54:57Z</time>
      </trkpt>
      <trkpt lat="47.25826" lon="-1.60339">
        <ele>40.954</ele>
        <time>2021-06-23T14:55:00Z</time>
      </trkpt>
      <trkpt lat="47.25809" lon="-1.6035">
        <ele>41.552</ele>
        <time>2021-06-23T14:55:04Z</time>
      </trkpt>
      <trkpt lat="47.25791" lon="-1.60369">
        <ele>42.672</ele>
        <time>2021-06-23T14:55:08Z</time>
      </trkpt>
      <trkpt lat="47.25769" lon="-1.60376">
        <ele>44.341</ele>
        <time>2021-06-23T14:55:13Z</time>
      </trkpt>
      <trkpt lat="47.25749" lon="-1.6036">
        <ele>45.56</ele>
        <time>2021-06-23T14:55:17Z</time>
      </trkpt>
      <trkpt lat="47.25739" lon="-1.6034">
        <ele>46.03</ele>
        <time>2021-06-23T14:55:21Z</time>
      </trkpt>
      <trkpt lat="47.25726" lon="-1.60321">
        <ele>46.672</ele>
        <time>2021-06-23T14:55:24Z</time>
      </trkpt>
      <trkpt lat="47.25702" lon="-1.6031">
        <ele>47.308</ele>
        <time>2021-06-23T14:55:29Z</time>
      </trkpt>
      <trkpt lat="47.2569" lon="-1.60315">
        <ele>47.596</ele>
        <time>2021-06-23T14:55:32Z</time>
      </trkpt>
      <trkpt lat="47.25672" lon="-1.60335">
        <ele>48</ele>
        <time>2021-06-23T14:55:36Z</time>
      </trkpt>
      <trkpt lat="47.25662" lon="-1.60361">
        <ele>48</ele>
        <time>2021-06-23T14:55:41Z</time>
      </trkpt>
      <trkpt lat="47.2565" lon="-1.60371">
        <ele>48</ele>
        <time>2021-06-23T14:55:43Z</time>
      </trkpt>
      <trkpt lat="47.2563" lon="-1.60377">
        <ele>48</ele>
        <time>2021-06-23T14:55:47Z</time>
      </trkpt>
      <trkpt lat="47.25624" lon="-1.60405">
        <ele>47.627</ele>
        <time>2021-06-23T14:55:51Z</time>
      </trkpt>
      <trkpt lat="47.25607" lon="-1.60437">
        <ele>47.123</ele>
        <time>2021-06-23T14:55:57Z</time>
      </trkpt>
      <trkpt lat="47.25553" lon="-1.60433">
        <ele>47.643</ele>
        <time>2021-06-23T14:56:08Z</time>
      </trkpt>
      <trkpt lat="47.25487" lon="-1.60439">
        <ele>49.09</ele>
        <time>2021-06-23T14:56:21Z</time>
      </trkpt>
      <trkpt lat="47.25445" lon="-1.60458">
        <ele>50.95</ele>
        <time>2021-06-23T14:56:30Z</time>
      </trkpt>
      <trkpt lat="47.25324" lon="-1.60493">
        <ele>51</ele>
        <time>2021-06-23T14:56:54Z</time>
      </trkpt>
      <trkpt lat="47.25294" lon="-1.60498">
        <ele>51</ele>
        <time>2021-06-23T14:57:00Z</time>
      </trkpt>
      <trkpt lat="47.25267" lon="-1.60513">
        <ele>51</ele>
        <time>2021-06-23T14:57:06Z</time>
      </trkpt>
      <trkpt lat="47.25214" lon="-1.60551">
        <ele>51</ele>
        <time>2021-06-23T14:57:18Z</time>
      </trkpt>
      <trkpt lat="47.25189" lon="-1.60576">
        <ele>51</ele>
        <time>2021-06-23T14:57:24Z</time>
      </trkpt>
      <trkpt lat="47.25167" lon="-1.60602">
        <ele>51.026</ele>
        <time>2021-06-23T14:57:30Z</time>
      </trkpt>
      <trkpt lat="47.25146" lon="-1.6063">
        <ele>51.47</ele>
        <time>2021-06-23T14:57:35Z</time>
      </trkpt>
      <trkpt lat="47.25099" lon="-1.60688">
        <ele>52.475</ele>
        <time>2021-06-23T14:57:48Z</time>
      </trkpt>
      <trkpt lat="47.25072" lon="-1.60713">
        <ele>53</ele>
        <time>2021-06-23T14:57:54Z</time>
      </trkpt>
      <trkpt lat="47.25022" lon="-1.60768">
        <ele>53.066</ele>
        <time>2021-06-23T14:58:06Z</time>
      </trkpt>
      <trkpt lat="47.25" lon="-1.60793">
        <ele>53.546</ele>
        <time>2021-06-23T14:58:12Z</time>
      </trkpt>
      <trkpt lat="47.24981" lon="-1.60825">
        <ele>53.975</ele>
        <time>2021-06-23T14:58:18Z</time>
      </trkpt>
      <trkpt lat="47.24957" lon="-1.60844">
        <ele>54</ele>
        <time>2021-06-23T14:58:23Z</time>
      </trkpt>
      <trkpt lat="47.24912" lon="-1.60895">
        <ele>53.525</ele>
        <time>2021-06-23T14:58:35Z</time>
      </trkpt>
      <trkpt lat="47.24864" lon="-1.60952">
        <ele>52.515</ele>
        <time>2021-06-23T14:58:47Z</time>
      </trkpt>
      <trkpt lat="47.24854" lon="-1.60996">
        <ele>52.325</ele>
        <time>2021-06-23T14:58:53Z</time>
      </trkpt>
      <trkpt lat="47.24831" lon="-1.60984">
        <ele>51.805</ele>
        <time>2021-06-23T14:58:58Z</time>
      </trkpt>
      <trkpt lat="47.24814" lon="-1.60944">
        <ele>51.385</ele>
        <time>2021-06-23T14:59:05Z</time>
      </trkpt>
      <trkpt lat="47.24787" lon="-1.60855">
        <ele>50.7</ele>
        <time>2021-06-23T14:59:18Z</time>
      </trkpt>
      <trkpt lat="47.2477" lon="-1.60824">
        <ele>50.673</ele>
        <time>2021-06-23T14:59:23Z</time>
      </trkpt>
      <trkpt lat="47.24742" lon="-1.60834">
        <ele>49.618</ele>
        <time>2021-06-23T14:59:29Z</time>
      </trkpt>
      <trkpt lat="47.24707" lon="-1.60854">
        <ele>47.764</ele>
        <time>2021-06-23T14:59:37Z</time>
      </trkpt>
      <trkpt lat="47.24589" lon="-1.60907">
        <ele>44.971</ele>
        <time>2021-06-23T15:00:01Z</time>
      </trkpt>
      <trkpt lat="47.24556" lon="-1.60933">
        <ele>44.109</ele>
        <time>2021-06-23T15:00:09Z</time>
      </trkpt>
      <trkpt lat="47.24533" lon="-1.60945">
        <ele>43.403</ele>
        <time>2021-06-23T15:00:14Z</time>
      </trkpt>
      <trkpt lat="47.24522" lon="-1.61009">
        <ele>44.392</ele>
        <time>2021-06-23T15:00:23Z</time>
      </trkpt>
      <trkpt lat="47.24515" lon="-1.61022">
        <ele>44.494</ele>
        <time>2021-06-23T15:00:25Z</time>
      </trkpt>
      <trkpt lat="47.24483" lon="-1.61037">
        <ele>43.614</ele>
        <time>2021-06-23T15:00:31Z</time>
      </trkpt>
      <trkpt lat="47.24451" lon="-1.61034">
        <ele>42.801</ele>
        <time>2021-06-23T15:00:38Z</time>
      </trkpt>
      <trkpt lat="47.24421" lon="-1.61022">
        <ele>41.545</ele>
        <time>2021-06-23T15:00:44Z</time>
      </trkpt>
      <trkpt lat="47.24407" lon="-1.60996">
        <ele>40.861</ele>
        <time>2021-06-23T15:00:49Z</time>
      </trkpt>
      <trkpt lat="47.24387" lon="-1.61013">
        <ele>40.018</ele>
        <time>2021-06-23T15:00:53Z</time>
      </trkpt>
      <trkpt lat="47.24357" lon="-1.61033">
        <ele>39.583</ele>
        <time>2021-06-23T15:01:00Z</time>
      </trkpt>
      <trkpt lat="47.24266" lon="-1.61106">
        <ele>36.512</ele>
        <time>2021-06-23T15:01:21Z</time>
      </trkpt>
      <trkpt lat="47.24247" lon="-1.611">
        <ele>36.025</ele>
        <time>2021-06-23T15:01:25Z</time>
      </trkpt>
      <trkpt lat="47.24233" lon="-1.61107">
        <ele>35.948</ele>
        <time>2021-06-23T15:01:28Z</time>
      </trkpt>
      <trkpt lat="47.24216" lon="-1.61136">
        <ele>34.54</ele>
        <time>2021-06-23T15:01:33Z</time>
      </trkpt>
      <trkpt lat="47.24193" lon="-1.61172">
        <ele>33.615</ele>
        <time>2021-06-23T15:01:40Z</time>
      </trkpt>
      <trkpt lat="47.24171" lon="-1.6121">
        <ele>31.977</ele>
        <time>2021-06-23T15:01:46Z</time>
      </trkpt>
      <trkpt lat="47.24152" lon="-1.61241">
        <ele>30.071</ele>
        <time>2021-06-23T15:01:52Z</time>
      </trkpt>
      <trkpt lat="47.2414" lon="-1.61257">
        <ele>29.069</ele>
        <time>2021-06-23T15:01:55Z</time>
      </trkpt>
      <trkpt lat="47.24116" lon="-1.6126">
        <ele>28.284</ele>
        <time>2021-06-23T15:02:00Z</time>
      </trkpt>
      <trkpt lat="47.24098" lon="-1.61242">
        <ele>29.571</ele>
        <time>2021-06-23T15:02:04Z</time>
      </trkpt>
      <trkpt lat="47.24075" lon="-1.61238">
        <ele>29.389</ele>
        <time>2021-06-23T15:02:09Z</time>
      </trkpt>
      <trkpt lat="47.24039" lon="-1.61239">
        <ele>27.26</ele>
        <time>2021-06-23T15:02:16Z</time>
      </trkpt>
      <trkpt lat="47.24017" lon="-1.61244">
        <ele>25.705</ele>
        <time>2021-06-23T15:02:21Z</time>
      </trkpt>
      <trkpt lat="47.2401" lon="-1.61259">
        <ele>25.728</ele>
        <time>2021-06-23T15:02:23Z</time>
      </trkpt>
      <trkpt lat="47.23997" lon="-1.61267">
        <ele>27.019</ele>
        <time>2021-06-23T15:02:26Z</time>
      </trkpt>
      <trkpt lat="47.23964" lon="-1.61263">
        <ele>26.712</ele>
        <time>2021-06-23T15:02:33Z</time>
      </trkpt>
      <trkpt lat="47.23935" lon="-1.61269">
        <ele>27.016</ele>
        <time>2021-06-23T15:02:38Z</time>
      </trkpt>
      <trkpt lat="47.23913" lon="-1.61276">
        <ele>26.359</ele>
        <time>2021-06-23T15:02:43Z</time>
      </trkpt>
      <trkpt lat="47.23893" lon="-1.61292">
        <ele>25.813</ele>
        <time>2021-06-23T15:02:48Z</time>
      </trkpt>
      <trkpt lat="47.23868" lon="-1.61306">
        <ele>23.847</ele>
        <time>2021-06-23T15:02:53Z</time>
      </trkpt>
      <trkpt lat="47.2384" lon="-1.61327">
        <ele>21.567</ele>
        <time>2021-06-23T15:02:59Z</time>
      </trkpt>
      <trkpt lat="47.23806" lon="-1.61366">
        <ele>21.261</ele>
        <time>2021-06-23T15:03:08Z</time>
      </trkpt>
      <trkpt lat="47.23791" lon="-1.61376">
        <ele>19.942</ele>
        <time>2021-06-23T15:03:11Z</time>
      </trkpt>
      <trkpt lat="47.2379" lon="-1.61413">
        <ele>19.436</ele>
        <time>2021-06-23T15:03:16Z</time>
      </trkpt>
      <trkpt lat="47.23784" lon="-1.6144">
        <ele>19.064</ele>
        <time>2021-06-23T15:03:20Z</time>
      </trkpt>
      <trkpt lat="47.2377" lon="-1.61476">
        <ele>19.157</ele>
        <time>2021-06-23T15:03:26Z</time>
      </trkpt>
      <trkpt lat="47.23761" lon="-1.61512">
        <ele>19.036</ele>
        <time>2021-06-23T15:03:31Z</time>
      </trkpt>
      <trkpt lat="47.23755" lon="-1.61525">
        <ele>18.901</ele>
        <time>2021-06-23T15:03:33Z</time>
      </trkpt>
      <trkpt lat="47.23757" lon="-1.61547">
        <ele>19.312</ele>
        <time>2021-06-23T15:03:36Z</time>
      </trkpt>
      <trkpt lat="47.23767" lon="-1.61575">
        <ele>20.791</ele>
        <time>2021-06-23T15:03:40Z</time>
      </trkpt>
      <trkpt lat="47.23765" lon="-1.6159">
        <ele>21.255</ele>
        <time>2021-06-23T15:03:42Z</time>
      </trkpt>
      <trkpt lat="47.23748" lon="-1.61653">
        <ele>20.494</ele>
        <time>2021-06-23T15:03:51Z</time>
      </trkpt>
      <trkpt lat="47.23749" lon="-1.61684">
        <ele>21.251</ele>
        <time>2021-06-23T15:03:56Z</time>
      </trkpt>
      <trkpt lat="47.23753" lon="-1.61714">
        <ele>22.069</ele>
        <time>2021-06-23T15:04:00Z</time>
      </trkpt>
      <trkpt lat="47.23762" lon="-1.61754">
        <ele>23.426</ele>
        <time>2021-06-23T15:04:06Z</time>
      </trkpt>
      <trkpt lat="47.23772" lon="-1.61788">
        <ele>23.746</ele>
        <time>2021-06-23T15:04:11Z</time>
      </trkpt>
      <trkpt lat="47.23788" lon="-1.61811">
        <ele>24.474</ele>
        <time>2021-06-23T15:04:15Z</time>
      </trkpt>
      <trkpt lat="47.23805" lon="-1.61857">
        <ele>23.771</ele>
        <time>2021-06-23T15:04:22Z</time>
      </trkpt>
      <trkpt lat="47.23827" lon="-1.6189">
        <ele>22.12</ele>
        <time>2021-06-23T15:04:28Z</time>
      </trkpt>
      <trkpt lat="47.23841" lon="-1.61916">
        <ele>21.766</ele>
        <time>2021-06-23T15:04:33Z</time>
      </trkpt>
      <trkpt lat="47.23865" lon="-1.61941">
        <ele>21.797</ele>
        <time>2021-06-23T15:04:39Z</time>
      </trkpt>
      <trkpt lat="47.23877" lon="-1.6195">
        <ele>21.25</ele>
        <time>2021-06-23T15:04:42Z</time>
      </trkpt>
      <trkpt lat="47.23918" lon="-1.61961">
        <ele>20.668</ele>
        <time>2021-06-23T15:04:50Z</time>
      </trkpt>
      <trkpt lat="47.23929" lon="-1.6197">
        <ele>20.118</ele>
        <time>2021-06-23T15:04:52Z</time>
      </trkpt>
      <trkpt lat="47.23942" lon="-1.61984">
        <ele>19.749</ele>
        <time>2021-06-23T15:04:56Z</time>
      </trkpt>
      <trkpt lat="47.23958" lon="-1.61996">
        <ele>20.466</ele>
        <time>2021-06-23T15:04:59Z</time>
      </trkpt>
      <trkpt lat="47.23972" lon="-1.62017">
        <ele>20.667</ele>
        <time>2021-06-23T15:05:03Z</time>
      </trkpt>
      <trkpt lat="47.23981" lon="-1.6204">
        <ele>19.378</ele>
        <time>2021-06-23T15:05:07Z</time>
      </trkpt>
      <trkpt lat="47.23988" lon="-1.62089">
        <ele>19.105</ele>
        <time>2021-06-23T15:05:14Z</time>
      </trkpt>
      <trkpt lat="47.23998" lon="-1.62145">
        <ele>19.68</ele>
        <time>2021-06-23T15:05:22Z</time>
      </trkpt>
      <trkpt lat="47.24008" lon="-1.62226">
        <ele>19.238</ele>
        <time>2021-06-23T15:05:33Z</time>
      </trkpt>
      <trkpt lat="47.2401" lon="-1.62268">
        <ele>19.513</ele>
        <time>2021-06-23T15:05:38Z</time>
      </trkpt>
      <trkpt lat="47.24004" lon="-1.62292">
        <ele>19.514</ele>
        <time>2021-06-23T15:05:42Z</time>
      </trkpt>
      <trkpt lat="47.24006" lon="-1.62316">
        <ele>20.02</ele>
        <time>2021-06-23T15:05:45Z</time>
      </trkpt>
      <trkpt lat="47.24006" lon="-1.62397">
        <ele>20.05</ele>
        <time>2021-06-23T15:05:56Z</time>
      </trkpt>
      <trkpt lat="47.24003" lon="-1.62411">
        <ele>19.73</ele>
        <time>2021-06-23T15:05:58Z</time>
      </trkpt>
      <trkpt lat="47.24008" lon="-1.6243">
        <ele>19.801</ele>
        <time>2021-06-23T15:06:01Z</time>
      </trkpt>
      <trkpt lat="47.24022" lon="-1.62451">
        <ele>19.98</ele>
        <time>2021-06-23T15:06:05Z</time>
      </trkpt>
      <trkpt lat="47.24045" lon="-1.62495">
        <ele>21.785</ele>
        <time>2021-06-23T15:06:13Z</time>
      </trkpt>
      <trkpt lat="47.24057" lon="-1.62514">
        <ele>21.531</ele>
        <time>2021-06-23T15:06:16Z</time>
      </trkpt>
      <trkpt lat="47.24074" lon="-1.62526">
        <ele>22.459</ele>
        <time>2021-06-23T15:06:20Z</time>
      </trkpt>
      <trkpt lat="47.24084" lon="-1.62537">
        <ele>23.245</ele>
        <time>2021-06-23T15:06:22Z</time>
      </trkpt>
      <trkpt lat="47.2409" lon="-1.62568">
        <ele>22.454</ele>
        <time>2021-06-23T15:06:27Z</time>
      </trkpt>
      <trkpt lat="47.24082" lon="-1.62595">
        <ele>21.223</ele>
        <time>2021-06-23T15:06:31Z</time>
      </trkpt>
      <trkpt lat="47.24071" lon="-1.62621">
        <ele>20.878</ele>
        <time>2021-06-23T15:06:35Z</time>
      </trkpt>
      <trkpt lat="47.24062" lon="-1.62651">
        <ele>21.028</ele>
        <time>2021-06-23T15:06:39Z</time>
      </trkpt>
      <trkpt lat="47.24062" lon="-1.62667">
        <ele>21.036</ele>
        <time>2021-06-23T15:06:41Z</time>
      </trkpt>
      <trkpt lat="47.24069" lon="-1.62694">
        <ele>21.287</ele>
        <time>2021-06-23T15:06:45Z</time>
      </trkpt>
      <trkpt lat="47.24081" lon="-1.62704">
        <ele>21.57</ele>
        <time>2021-06-23T15:06:48Z</time>
      </trkpt>
      <trkpt lat="47.2409" lon="-1.62717">
        <ele>21.61</ele>
        <time>2021-06-23T15:06:51Z</time>
      </trkpt>
      <trkpt lat="47.24102" lon="-1.62752">
        <ele>20.888</ele>
        <time>2021-06-23T15:06:56Z</time>
      </trkpt>
      <trkpt lat="47.24119" lon="-1.62781">
        <ele>22.566</ele>
        <time>2021-06-23T15:07:01Z</time>
      </trkpt>
      <trkpt lat="47.24126" lon="-1.628">
        <ele>23.051</ele>
        <time>2021-06-23T15:07:04Z</time>
      </trkpt>
      <trkpt lat="47.24148" lon="-1.62844">
        <ele>23.116</ele>
        <time>2021-06-23T15:07:12Z</time>
      </trkpt>
      <trkpt lat="47.24152" lon="-1.62862">
        <ele>23.184</ele>
        <time>2021-06-23T15:07:14Z</time>
      </trkpt>
      <trkpt lat="47.24167" lon="-1.629">
        <ele>24.247</ele>
        <time>2021-06-23T15:07:20Z</time>
      </trkpt>
      <trkpt lat="47.24176" lon="-1.62918">
        <ele>24.462</ele>
        <time>2021-06-23T15:07:23Z</time>
      </trkpt>
      <trkpt lat="47.24188" lon="-1.62967">
        <ele>24.335</ele>
        <time>2021-06-23T15:07:30Z</time>
      </trkpt>
      <trkpt lat="47.24188" lon="-1.62994">
        <ele>23.518</ele>
        <time>2021-06-23T15:07:34Z</time>
      </trkpt>
      <trkpt lat="47.24199" lon="-1.63051">
        <ele>24.425</ele>
        <time>2021-06-23T15:07:42Z</time>
      </trkpt>
      <trkpt lat="47.24213" lon="-1.63089">
        <ele>25.796</ele>
        <time>2021-06-23T15:07:48Z</time>
      </trkpt>
      <trkpt lat="47.24245" lon="-1.63161">
        <ele>25.26</ele>
        <time>2021-06-23T15:08:00Z</time>
      </trkpt>
      <trkpt lat="47.24269" lon="-1.63189">
        <ele>25.186</ele>
        <time>2021-06-23T15:08:06Z</time>
      </trkpt>
      <trkpt lat="47.24279" lon="-1.63207">
        <ele>25.237</ele>
        <time>2021-06-23T15:08:09Z</time>
      </trkpt>
      <trkpt lat="47.2432" lon="-1.63272">
        <ele>25.09</ele>
        <time>2021-06-23T15:08:21Z</time>
      </trkpt>
      <trkpt lat="47.24327" lon="-1.63288">
        <ele>25.392</ele>
        <time>2021-06-23T15:08:24Z</time>
      </trkpt>
      <trkpt lat="47.24337" lon="-1.63303">
        <ele>25.652</ele>
        <time>2021-06-23T15:08:26Z</time>
      </trkpt>
      <trkpt lat="47.24343" lon="-1.63347">
        <ele>23.924</ele>
        <time>2021-06-23T15:08:33Z</time>
      </trkpt>
      <trkpt lat="47.24358" lon="-1.63376">
        <ele>24.107</ele>
        <time>2021-06-23T15:08:37Z</time>
      </trkpt>
      <trkpt lat="47.24383" lon="-1.63466">
        <ele>26.029</ele>
        <time>2021-06-23T15:08:51Z</time>
      </trkpt>
      <trkpt lat="47.24387" lon="-1.63483">
        <ele>26.427</ele>
        <time>2021-06-23T15:08:53Z</time>
      </trkpt>
      <trkpt lat="47.24381" lon="-1.63526">
        <ele>26.224</ele>
        <time>2021-06-23T15:08:59Z</time>
      </trkpt>
      <trkpt lat="47.24381" lon="-1.63543">
        <ele>26.295</ele>
        <time>2021-06-23T15:09:01Z</time>
      </trkpt>
      <trkpt lat="47.24386" lon="-1.63571">
        <ele>26.685</ele>
        <time>2021-06-23T15:09:05Z</time>
      </trkpt>
      <trkpt lat="47.24399" lon="-1.63629">
        <ele>27.116</ele>
        <time>2021-06-23T15:09:14Z</time>
      </trkpt>
      <trkpt lat="47.24398" lon="-1.63659">
        <ele>26.279</ele>
        <time>2021-06-23T15:09:18Z</time>
      </trkpt>
      <trkpt lat="47.24394" lon="-1.63708">
        <ele>24.944</ele>
        <time>2021-06-23T15:09:24Z</time>
      </trkpt>
      <trkpt lat="47.24389" lon="-1.63735">
        <ele>24.237</ele>
        <time>2021-06-23T15:09:28Z</time>
      </trkpt>
      <trkpt lat="47.24394" lon="-1.63747">
        <ele>24.511</ele>
        <time>2021-06-23T15:09:30Z</time>
      </trkpt>
      <trkpt lat="47.24403" lon="-1.63737">
        <ele>25.117</ele>
        <time>2021-06-23T15:09:32Z</time>
      </trkpt>
      <trkpt lat="47.24413" lon="-1.63738">
        <ele>25.7</ele>
        <time>2021-06-23T15:09:34Z</time>
      </trkpt>
      <trkpt lat="47.24428" lon="-1.63747">
        <ele>26.445</ele>
        <time>2021-06-23T15:09:38Z</time>
      </trkpt>
      <trkpt lat="47.2444" lon="-1.63751">
        <ele>27.471</ele>
        <time>2021-06-23T15:09:40Z</time>
      </trkpt>
      <trkpt lat="47.24441" lon="-1.63768">
        <ele>26.951</ele>
        <time>2021-06-23T15:09:43Z</time>
      </trkpt>
      <trkpt lat="47.24422" lon="-1.63849">
        <ele>24.19</ele>
        <time>2021-06-23T15:09:54Z</time>
      </trkpt>
      <trkpt lat="47.2443" lon="-1.63877">
        <ele>24.079</ele>
        <time>2021-06-23T15:09:58Z</time>
      </trkpt>
      <trkpt lat="47.24441" lon="-1.639">
        <ele>24.172</ele>
        <time>2021-06-23T15:10:02Z</time>
      </trkpt>
      <trkpt lat="47.24453" lon="-1.63932">
        <ele>24.013</ele>
        <time>2021-06-23T15:10:07Z</time>
      </trkpt>
      <trkpt lat="47.24485" lon="-1.64042">
        <ele>25.63</ele>
        <time>2021-06-23T15:10:23Z</time>
      </trkpt>
      <trkpt lat="47.24496" lon="-1.64062">
        <ele>25.772</ele>
        <time>2021-06-23T15:10:27Z</time>
      </trkpt>
      <trkpt lat="47.24523" lon="-1.6412">
        <ele>26.671</ele>
        <time>2021-06-23T15:10:36Z</time>
      </trkpt>
      <trkpt lat="47.24553" lon="-1.64193">
        <ele>27.67</ele>
        <time>2021-06-23T15:10:48Z</time>
      </trkpt>
      <trkpt lat="47.24564" lon="-1.64211">
        <ele>28.392</ele>
        <time>2021-06-23T15:10:51Z</time>
      </trkpt>
      <trkpt lat="47.24588" lon="-1.64283">
        <ele>27.333</ele>
        <time>2021-06-23T15:11:02Z</time>
      </trkpt>
      <trkpt lat="47.24604" lon="-1.64321">
        <ele>27.635</ele>
        <time>2021-06-23T15:11:08Z</time>
      </trkpt>
      <trkpt lat="47.24619" lon="-1.64361">
        <ele>28.002</ele>
        <time>2021-06-23T15:11:15Z</time>
      </trkpt>
      <trkpt lat="47.24635" lon="-1.6439">
        <ele>27.725</ele>
        <time>2021-06-23T15:11:20Z</time>
      </trkpt>
      <trkpt lat="47.24646" lon="-1.64426">
        <ele>27.921</ele>
        <time>2021-06-23T15:11:25Z</time>
      </trkpt>
      <trkpt lat="47.2465" lon="-1.64447">
        <ele>27.679</ele>
        <time>2021-06-23T15:11:28Z</time>
      </trkpt>
      <trkpt lat="47.24669" lon="-1.64471">
        <ele>29.477</ele>
        <time>2021-06-23T15:11:33Z</time>
      </trkpt>
      <trkpt lat="47.24686" lon="-1.64502">
        <ele>29.736</ele>
        <time>2021-06-23T15:11:38Z</time>
      </trkpt>
      <trkpt lat="47.24698" lon="-1.64519">
        <ele>30.113</ele>
        <time>2021-06-23T15:11:42Z</time>
      </trkpt>
      <trkpt lat="47.24713" lon="-1.64534">
        <ele>31.021</ele>
        <time>2021-06-23T15:11:45Z</time>
      </trkpt>
      <trkpt lat="47.24725" lon="-1.64549">
        <ele>31.026</ele>
        <time>2021-06-23T15:11:48Z</time>
      </trkpt>
      <trkpt lat="47.24733" lon="-1.64562">
        <ele>30.33</ele>
        <time>2021-06-23T15:11:51Z</time>
      </trkpt>
      <trkpt lat="47.24741" lon="-1.64569">
        <ele>30.094</ele>
        <time>2021-06-23T15:11:53Z</time>
      </trkpt>
      <trkpt lat="47.24754" lon="-1.64565">
        <ele>30.822</ele>
        <time>2021-06-23T15:11:55Z</time>
      </trkpt>
      <trkpt lat="47.24783" lon="-1.64586">
        <ele>29.68</ele>
        <time>2021-06-23T15:12:02Z</time>
      </trkpt>
      <trkpt lat="47.24793" lon="-1.64588">
        <ele>29.55</ele>
        <time>2021-06-23T15:12:04Z</time>
      </trkpt>
      <trkpt lat="47.24803" lon="-1.64598">
        <ele>29.316</ele>
        <time>2021-06-23T15:12:06Z</time>
      </trkpt>
      <trkpt lat="47.24814" lon="-1.64614">
        <ele>29.299</ele>
        <time>2021-06-23T15:12:09Z</time>
      </trkpt>
      <trkpt lat="47.24814" lon="-1.64628">
        <ele>29.066</ele>
        <time>2021-06-23T15:12:11Z</time>
      </trkpt>
      <trkpt lat="47.2482" lon="-1.64646">
        <ele>28.949</ele>
        <time>2021-06-23T15:12:14Z</time>
      </trkpt>
      <trkpt lat="47.24853" lon="-1.64639">
        <ele>29.945</ele>
        <time>2021-06-23T15:12:21Z</time>
      </trkpt>
      <trkpt lat="47.24903" lon="-1.64636">
        <ele>32.749</ele>
        <time>2021-06-23T15:12:31Z</time>
      </trkpt>
      <trkpt lat="47.2493" lon="-1.64631">
        <ele>33.685</ele>
        <time>2021-06-23T15:12:36Z</time>
      </trkpt>
      <trkpt lat="47.24984" lon="-1.64617">
        <ele>36.611</ele>
        <time>2021-06-23T15:12:47Z</time>
      </trkpt>
      <trkpt lat="47.24998" lon="-1.64609">
        <ele>38.143</ele>
        <time>2021-06-23T15:12:50Z</time>
      </trkpt>
      <trkpt lat="47.25028" lon="-1.64585">
        <ele>41.255</ele>
        <time>2021-06-23T15:12:57Z</time>
      </trkpt>
      <trkpt lat="47.25078" lon="-1.6453">
        <ele>45.295</ele>
        <time>2021-06-23T15:13:10Z</time>
      </trkpt>
      <trkpt lat="47.25091" lon="-1.64531">
        <ele>45.948</ele>
        <time>2021-06-23T15:13:12Z</time>
      </trkpt>
      <trkpt lat="47.25097" lon="-1.64549">
        <ele>45.883</ele>
        <time>2021-06-23T15:13:15Z</time>
      </trkpt>
      <trkpt lat="47.25103" lon="-1.64614">
        <ele>45.815</ele>
        <time>2021-06-23T15:13:24Z</time>
      </trkpt>
      <trkpt lat="47.25102" lon="-1.64635">
        <ele>45.83</ele>
        <time>2021-06-23T15:13:27Z</time>
      </trkpt>
      <trkpt lat="47.25089" lon="-1.64765">
        <ele>42.422</ele>
        <time>2021-06-23T15:13:44Z</time>
      </trkpt>
      <trkpt lat="47.25084" lon="-1.64797">
        <ele>41.634</ele>
        <time>2021-06-23T15:13:49Z</time>
      </trkpt>
      <trkpt lat="47.2509" lon="-1.64819">
        <ele>41.708</ele>
        <time>2021-06-23T15:13:52Z</time>
      </trkpt>
      <trkpt lat="47.25105" lon="-1.64834">
        <ele>42.584</ele>
        <time>2021-06-23T15:13:56Z</time>
      </trkpt>
      <trkpt lat="47.25139" lon="-1.6486">
        <ele>45.061</ele>
        <time>2021-06-23T15:14:03Z</time>
      </trkpt>
      <trkpt lat="47.25147" lon="-1.6487">
        <ele>45.801</ele>
        <time>2021-06-23T15:14:06Z</time>
      </trkpt>
      <trkpt lat="47.25153" lon="-1.64886">
        <ele>46.462</ele>
        <time>2021-06-23T15:14:08Z</time>
      </trkpt>
      <trkpt lat="47.25163" lon="-1.6492">
        <ele>47.54</ele>
        <time>2021-06-23T15:14:13Z</time>
      </trkpt>
      <trkpt lat="47.25169" lon="-1.64948">
        <ele>47.99</ele>
        <time>2021-06-23T15:14:17Z</time>
      </trkpt>
      <trkpt lat="47.25176" lon="-1.65073">
        <ele>48.717</ele>
        <time>2021-06-23T15:14:34Z</time>
      </trkpt>
      <trkpt lat="47.25175" lon="-1.65104">
        <ele>48.242</ele>
        <time>2021-06-23T15:14:38Z</time>
      </trkpt>
      <trkpt lat="47.25153" lon="-1.65188">
        <ele>45.76</ele>
        <time>2021-06-23T15:14:50Z</time>
      </trkpt>
      <trkpt lat="47.25157" lon="-1.65223">
        <ele>44.818</ele>
        <time>2021-06-23T15:14:55Z</time>
      </trkpt>
      <trkpt lat="47.25163" lon="-1.65261">
        <ele>43.836</ele>
        <time>2021-06-23T15:15:01Z</time>
      </trkpt>
      <trkpt lat="47.25157" lon="-1.65305">
        <ele>42.366</ele>
        <time>2021-06-23T15:15:07Z</time>
      </trkpt>
      <trkpt lat="47.2513" lon="-1.65396">
        <ele>39.05</ele>
        <time>2021-06-23T15:15:20Z</time>
      </trkpt>
      <trkpt lat="47.25112" lon="-1.65439">
        <ele>37.305</ele>
        <time>2021-06-23T15:15:27Z</time>
      </trkpt>
      <trkpt lat="47.25105" lon="-1.65487">
        <ele>35.229</ele>
        <time>2021-06-23T15:15:34Z</time>
      </trkpt>
      <trkpt lat="47.25096" lon="-1.65536">
        <ele>33.156</ele>
        <time>2021-06-23T15:15:41Z</time>
      </trkpt>
      <trkpt lat="47.25083" lon="-1.65574">
        <ele>31.81</ele>
        <time>2021-06-23T15:15:46Z</time>
      </trkpt>
      <trkpt lat="47.2507" lon="-1.6564">
        <ele>31.536</ele>
        <time>2021-06-23T15:15:56Z</time>
      </trkpt>
      <trkpt lat="47.25071" lon="-1.65655">
        <ele>31.918</ele>
        <time>2021-06-23T15:15:58Z</time>
      </trkpt>
      <trkpt lat="47.25081" lon="-1.65667">
        <ele>32.866</ele>
        <time>2021-06-23T15:16:00Z</time>
      </trkpt>
      <trkpt lat="47.25133" lon="-1.65694">
        <ele>36.981</ele>
        <time>2021-06-23T15:16:11Z</time>
      </trkpt>
      <trkpt lat="47.25163" lon="-1.65702">
        <ele>38.515</ele>
        <time>2021-06-23T15:16:18Z</time>
      </trkpt>
      <trkpt lat="47.25175" lon="-1.65713">
        <ele>39.222</ele>
        <time>2021-06-23T15:16:20Z</time>
      </trkpt>
      <trkpt lat="47.25189" lon="-1.65765">
        <ele>40.36</ele>
        <time>2021-06-23T15:16:28Z</time>
      </trkpt>
      <trkpt lat="47.252" lon="-1.65788">
        <ele>40.827</ele>
        <time>2021-06-23T15:16:32Z</time>
      </trkpt>
      <trkpt lat="47.25212" lon="-1.6582">
        <ele>41.639</ele>
        <time>2021-06-23T15:16:37Z</time>
      </trkpt>
      <trkpt lat="47.25219" lon="-1.6585">
        <ele>42.277</ele>
        <time>2021-06-23T15:16:41Z</time>
      </trkpt>
      <trkpt lat="47.2525" lon="-1.65953">
        <ele>43.91</ele>
        <time>2021-06-23T15:16:56Z</time>
      </trkpt>
      <trkpt lat="47.25269" lon="-1.65993">
        <ele>44.106</ele>
        <time>2021-06-23T15:17:03Z</time>
      </trkpt>
      <trkpt lat="47.25318" lon="-1.66086">
        <ele>43.912</ele>
        <time>2021-06-23T15:17:19Z</time>
      </trkpt>
      <trkpt lat="47.2532" lon="-1.66109">
        <ele>43.639</ele>
        <time>2021-06-23T15:17:22Z</time>
      </trkpt>
      <trkpt lat="47.25318" lon="-1.66151">
        <ele>42.391</ele>
        <time>2021-06-23T15:17:28Z</time>
      </trkpt>
      <trkpt lat="47.25319" lon="-1.66231">
        <ele>40.577</ele>
        <time>2021-06-23T15:17:39Z</time>
      </trkpt>
      <trkpt lat="47.25324" lon="-1.6627">
        <ele>40.867</ele>
        <time>2021-06-23T15:17:44Z</time>
      </trkpt>
      <trkpt lat="47.25326" lon="-1.66337">
        <ele>41.207</ele>
        <time>2021-06-23T15:17:53Z</time>
      </trkpt>
      <trkpt lat="47.25325" lon="-1.66441">
        <ele>37.953</ele>
        <time>2021-06-23T15:18:07Z</time>
      </trkpt>
      <trkpt lat="47.2533" lon="-1.66535">
        <ele>38.023</ele>
        <time>2021-06-23T15:18:20Z</time>
      </trkpt>
      <trkpt lat="47.25335" lon="-1.66582">
        <ele>41.229</ele>
        <time>2021-06-23T15:18:27Z</time>
      </trkpt>
      <trkpt lat="47.25336" lon="-1.66614">
        <ele>42.693</ele>
        <time>2021-06-23T15:18:31Z</time>
      </trkpt>
      <trkpt lat="47.25334" lon="-1.66762">
        <ele>45.405</ele>
        <time>2021-06-23T15:18:51Z</time>
      </trkpt>
      <trkpt lat="47.25337" lon="-1.6683">
        <ele>45.921</ele>
        <time>2021-06-23T15:19:00Z</time>
      </trkpt>
      <trkpt lat="47.25335" lon="-1.66848">
        <ele>45.97</ele>
        <time>2021-06-23T15:19:03Z</time>
      </trkpt>
      <trkpt lat="47.25338" lon="-1.66881">
        <ele>46.17</ele>
        <time>2021-06-23T15:19:07Z</time>
      </trkpt>
      <trkpt lat="47.25344" lon="-1.66986">
        <ele>46.4</ele>
        <time>2021-06-23T15:19:22Z</time>
      </trkpt>
      <trkpt lat="47.25348" lon="-1.67007">
        <ele>46.655</ele>
        <time>2021-06-23T15:19:25Z</time>
      </trkpt>
      <trkpt lat="47.25357" lon="-1.67133">
        <ele>45.997</ele>
        <time>2021-06-23T15:19:42Z</time>
      </trkpt>
      <trkpt lat="47.2536" lon="-1.67196">
        <ele>44.747</ele>
        <time>2021-06-23T15:19:50Z</time>
      </trkpt>
      <trkpt lat="47.25367" lon="-1.67235">
        <ele>43.7</ele>
        <time>2021-06-23T15:19:56Z</time>
      </trkpt>
      <trkpt lat="47.2537" lon="-1.67262">
        <ele>42.776</ele>
        <time>2021-06-23T15:20:00Z</time>
      </trkpt>
      <trkpt lat="47.25371" lon="-1.67298">
        <ele>41.267</ele>
        <time>2021-06-23T15:20:05Z</time>
      </trkpt>
      <trkpt lat="47.2538" lon="-1.67351">
        <ele>39.818</ele>
        <time>2021-06-23T15:20:12Z</time>
      </trkpt>
      <trkpt lat="47.25382" lon="-1.67389">
        <ele>38.748</ele>
        <time>2021-06-23T15:20:17Z</time>
      </trkpt>
      <trkpt lat="47.2537" lon="-1.67411">
        <ele>38.471</ele>
        <time>2021-06-23T15:20:21Z</time>
      </trkpt>
      <trkpt lat="47.25364" lon="-1.67424">
        <ele>38.461</ele>
        <time>2021-06-23T15:20:23Z</time>
      </trkpt>
      <trkpt lat="47.25354" lon="-1.67458">
        <ele>39.123</ele>
        <time>2021-06-23T15:20:28Z</time>
      </trkpt>
      <trkpt lat="47.2535" lon="-1.67482">
        <ele>39.825</ele>
        <time>2021-06-23T15:20:32Z</time>
      </trkpt>
      <trkpt lat="47.25352" lon="-1.67505">
        <ele>40.299</ele>
        <time>2021-06-23T15:20:35Z</time>
      </trkpt>
      <trkpt lat="47.2534" lon="-1.67537">
        <ele>41.337</ele>
        <time>2021-06-23T15:20:40Z</time>
      </trkpt>
      <trkpt lat="47.2531" lon="-1.67567">
        <ele>42.529</ele>
        <time>2021-06-23T15:20:47Z</time>
      </trkpt>
      <trkpt lat="47.25298" lon="-1.67582">
        <ele>43.013</ele>
        <time>2021-06-23T15:20:50Z</time>
      </trkpt>
      <trkpt lat="47.25303" lon="-1.6762">
        <ele>43.438</ele>
        <time>2021-06-23T15:20:55Z</time>
      </trkpt>
      <trkpt lat="47.2532" lon="-1.67693">
        <ele>43.922</ele>
        <time>2021-06-23T15:21:06Z</time>
      </trkpt>
      <trkpt lat="47.25324" lon="-1.67729">
        <ele>44.436</ele>
        <time>2021-06-23T15:21:11Z</time>
      </trkpt>
      <trkpt lat="47.25312" lon="-1.67756">
        <ele>44.864</ele>
        <time>2021-06-23T15:21:15Z</time>
      </trkpt>
      <trkpt lat="47.25292" lon="-1.67778">
        <ele>45.209</ele>
        <time>2021-06-23T15:21:20Z</time>
      </trkpt>
      <trkpt lat="47.25231" lon="-1.67836">
        <ele>47.416</ele>
        <time>2021-06-23T15:21:35Z</time>
      </trkpt>
      <trkpt lat="47.25219" lon="-1.67861">
        <ele>48.54</ele>
        <time>2021-06-23T15:21:39Z</time>
      </trkpt>
      <trkpt lat="47.25213" lon="-1.67895">
        <ele>49.571</ele>
        <time>2021-06-23T15:21:44Z</time>
      </trkpt>
      <trkpt lat="47.2521" lon="-1.67916">
        <ele>50.256</ele>
        <time>2021-06-23T15:21:46Z</time>
      </trkpt>
      <trkpt lat="47.25203" lon="-1.67945">
        <ele>51.276</ele>
        <time>2021-06-23T15:21:51Z</time>
      </trkpt>
      <trkpt lat="47.25188" lon="-1.67943">
        <ele>51.583</ele>
        <time>2021-06-23T15:21:54Z</time>
      </trkpt>
      <trkpt lat="47.25171" lon="-1.67931">
        <ele>52.087</ele>
        <time>2021-06-23T15:21:57Z</time>
      </trkpt>
      <trkpt lat="47.25127" lon="-1.67892">
        <ele>54.136</ele>
        <time>2021-06-23T15:22:08Z</time>
      </trkpt>
      <trkpt lat="47.25055" lon="-1.67834">
        <ele>58.568</ele>
        <time>2021-06-23T15:22:24Z</time>
      </trkpt>
      <trkpt lat="47.25042" lon="-1.67833">
        <ele>59.347</ele>
        <time>2021-06-23T15:22:27Z</time>
      </trkpt>
      <trkpt lat="47.2503" lon="-1.67841">
        <ele>60.232</ele>
        <time>2021-06-23T15:22:29Z</time>
      </trkpt>
      <trkpt lat="47.25021" lon="-1.67844">
        <ele>60.818</ele>
        <time>2021-06-23T15:22:31Z</time>
      </trkpt>
      <trkpt lat="47.2499" lon="-1.67848">
        <ele>62.023</ele>
        <time>2021-06-23T15:22:38Z</time>
      </trkpt>
      <trkpt lat="47.24966" lon="-1.67854">
        <ele>62.654</ele>
        <time>2021-06-23T15:22:42Z</time>
      </trkpt>
      <trkpt lat="47.24952" lon="-1.67859">
        <ele>63.321</ele>
        <time>2021-06-23T15:22:45Z</time>
      </trkpt>
      <trkpt lat="47.24924" lon="-1.67865">
        <ele>64.651</ele>
        <time>2021-06-23T15:22:51Z</time>
      </trkpt>
      <trkpt lat="47.24908" lon="-1.6788">
        <ele>65.188</ele>
        <time>2021-06-23T15:22:55Z</time>
      </trkpt>
      <trkpt lat="47.24906" lon="-1.67898">
        <ele>65.462</ele>
        <time>2021-06-23T15:22:57Z</time>
      </trkpt>
      <trkpt lat="47.24906" lon="-1.67919">
        <ele>65.776</ele>
        <time>2021-06-23T15:23:00Z</time>
      </trkpt>
      <trkpt lat="47.24911" lon="-1.67964">
        <ele>66.459</ele>
        <time>2021-06-23T15:23:06Z</time>
      </trkpt>
      <trkpt lat="47.24909" lon="-1.67992">
        <ele>66.877</ele>
        <time>2021-06-23T15:23:10Z</time>
      </trkpt>
      <trkpt lat="47.24903" lon="-1.68028">
        <ele>67.439</ele>
        <time>2021-06-23T15:23:15Z</time>
      </trkpt>
      <trkpt lat="47.24902" lon="-1.68057">
        <ele>67.868</ele>
        <time>2021-06-23T15:23:19Z</time>
      </trkpt>
      <trkpt lat="47.24904" lon="-1.68108">
        <ele>68</ele>
        <time>2021-06-23T15:23:26Z</time>
      </trkpt>
      <trkpt lat="47.24903" lon="-1.68128">
        <ele>68</ele>
        <time>2021-06-23T15:23:29Z</time>
      </trkpt>
      <trkpt lat="47.24905" lon="-1.68158">
        <ele>68</ele>
        <time>2021-06-23T15:23:33Z</time>
      </trkpt>
      <trkpt lat="47.24899" lon="-1.68217">
        <ele>67.959</ele>
        <time>2021-06-23T15:23:41Z</time>
      </trkpt>
      <trkpt lat="47.249" lon="-1.68249">
        <ele>67.93</ele>
        <time>2021-06-23T15:23:45Z</time>
      </trkpt>
      <trkpt lat="47.24915" lon="-1.68261">
        <ele>67.506</ele>
        <time>2021-06-23T15:23:49Z</time>
      </trkpt>
      <trkpt lat="47.24918" lon="-1.68281">
        <ele>67.19</ele>
        <time>2021-06-23T15:23:51Z</time>
      </trkpt>
      <trkpt lat="47.24917" lon="-1.68314">
        <ele>66.83</ele>
        <time>2021-06-23T15:23:56Z</time>
      </trkpt>
      <trkpt lat="47.24919" lon="-1.68336">
        <ele>66.545</ele>
        <time>2021-06-23T15:23:59Z</time>
      </trkpt>
      <trkpt lat="47.24918" lon="-1.68373">
        <ele>65.955</ele>
        <time>2021-06-23T15:24:04Z</time>
      </trkpt>
      <trkpt lat="47.24916" lon="-1.68408">
        <ele>65.615</ele>
        <time>2021-06-23T15:24:09Z</time>
      </trkpt>
      <trkpt lat="47.24916" lon="-1.68436">
        <ele>65.59</ele>
        <time>2021-06-23T15:24:13Z</time>
      </trkpt>
      <trkpt lat="47.24912" lon="-1.68458">
        <ele>65.66</ele>
        <time>2021-06-23T15:24:16Z</time>
      </trkpt>
      <trkpt lat="47.24869" lon="-1.68465">
        <ele>66.61</ele>
        <time>2021-06-23T15:24:24Z</time>
      </trkpt>
      <trkpt lat="47.24851" lon="-1.68464">
        <ele>67.015</ele>
        <time>2021-06-23T15:24:28Z</time>
      </trkpt>
      <trkpt lat="47.24835" lon="-1.68461">
        <ele>67.365</ele>
        <time>2021-06-23T15:24:31Z</time>
      </trkpt>
      <trkpt lat="47.24823" lon="-1.68453">
        <ele>67.65</ele>
        <time>2021-06-23T15:24:34Z</time>
      </trkpt>
      <trkpt lat="47.24809" lon="-1.6844">
        <ele>67.965</ele>
        <time>2021-06-23T15:24:37Z</time>
      </trkpt>
      <trkpt lat="47.24762" lon="-1.68361">
        <ele>67.632</ele>
        <time>2021-06-23T15:24:51Z</time>
      </trkpt>
      <trkpt lat="47.24752" lon="-1.68334">
        <ele>67.23</ele>
        <time>2021-06-23T15:24:56Z</time>
      </trkpt>
      <trkpt lat="47.2474" lon="-1.68278">
        <ele>67</ele>
        <time>2021-06-23T15:25:04Z</time>
      </trkpt>
      <trkpt lat="47.2472" lon="-1.68205">
        <ele>66.316</ele>
        <time>2021-06-23T15:25:14Z</time>
      </trkpt>
      <trkpt lat="47.24712" lon="-1.68182">
        <ele>65.975</ele>
        <time>2021-06-23T15:25:18Z</time>
      </trkpt>
      <trkpt lat="47.2469" lon="-1.68128">
        <ele>65.192</ele>
        <time>2021-06-23T15:25:26Z</time>
      </trkpt>
      <trkpt lat="47.24677" lon="-1.68105">
        <ele>64.838</ele>
        <time>2021-06-23T15:25:30Z</time>
      </trkpt>
      <trkpt lat="47.24663" lon="-1.68092">
        <ele>64.523</ele>
        <time>2021-06-23T15:25:34Z</time>
      </trkpt>
      <trkpt lat="47.24651" lon="-1.68089">
        <ele>64.365</ele>
        <time>2021-06-23T15:25:36Z</time>
      </trkpt>
      <trkpt lat="47.24624" lon="-1.68069">
        <ele>63.257</ele>
        <time>2021-06-23T15:25:42Z</time>
      </trkpt>
      <trkpt lat="47.24613" lon="-1.68055">
        <ele>62.617</ele>
        <time>2021-06-23T15:25:45Z</time>
      </trkpt>
      <trkpt lat="47.24605" lon="-1.68048">
        <ele>62.291</ele>
        <time>2021-06-23T15:25:47Z</time>
      </trkpt>
      <trkpt lat="47.24574" lon="-1.68033">
        <ele>61.881</ele>
        <time>2021-06-23T15:25:53Z</time>
      </trkpt>
      <trkpt lat="47.24555" lon="-1.68015">
        <ele>61.639</ele>
        <time>2021-06-23T15:25:58Z</time>
      </trkpt>
      <trkpt lat="47.24522" lon="-1.67993">
        <ele>61.341</ele>
        <time>2021-06-23T15:26:05Z</time>
      </trkpt>
      <trkpt lat="47.24498" lon="-1.67982">
        <ele>61.385</ele>
        <time>2021-06-23T15:26:10Z</time>
      </trkpt>
      <trkpt lat="47.2447" lon="-1.67965">
        <ele>61.85</ele>
        <time>2021-06-23T15:26:16Z</time>
      </trkpt>
      <trkpt lat="47.2442" lon="-1.67919">
        <ele>62.002</ele>
        <time>2021-06-23T15:26:28Z</time>
      </trkpt>
      <trkpt lat="47.24407" lon="-1.67902">
        <ele>62.029</ele>
        <time>2021-06-23T15:26:32Z</time>
      </trkpt>
      <trkpt lat="47.24402" lon="-1.67875">
        <ele>62</ele>
        <time>2021-06-23T15:26:35Z</time>
      </trkpt>
      <trkpt lat="47.24382" lon="-1.67863">
        <ele>62</ele>
        <time>2021-06-23T15:26:40Z</time>
      </trkpt>
      <trkpt lat="47.24357" lon="-1.67852">
        <ele>62.445</ele>
        <time>2021-06-23T15:26:45Z</time>
      </trkpt>
      <trkpt lat="47.24337" lon="-1.67866">
        <ele>62.88</ele>
        <time>2021-06-23T15:26:49Z</time>
      </trkpt>
      <trkpt lat="47.24333" lon="-1.67885">
        <ele>62.96</ele>
        <time>2021-06-23T15:26:52Z</time>
      </trkpt>
      <trkpt lat="47.24323" lon="-1.67916">
        <ele>63.491</ele>
        <time>2021-06-23T15:26:57Z</time>
      </trkpt>
      <trkpt lat="47.243" lon="-1.6801">
        <ele>64.52</ele>
        <time>2021-06-23T15:27:10Z</time>
      </trkpt>
      <trkpt lat="47.24278" lon="-1.68117">
        <ele>65</ele>
        <time>2021-06-23T15:27:25Z</time>
      </trkpt>
      <trkpt lat="47.24252" lon="-1.6822">
        <ele>64.96</ele>
        <time>2021-06-23T15:27:40Z</time>
      </trkpt>
      <trkpt lat="47.24245" lon="-1.68241">
        <ele>64.748</ele>
        <time>2021-06-23T15:27:43Z</time>
      </trkpt>
      <trkpt lat="47.24244" lon="-1.6826">
        <ele>64.548</ele>
        <time>2021-06-23T15:27:46Z</time>
      </trkpt>
      <trkpt lat="47.24206" lon="-1.68421">
        <ele>61.771</ele>
        <time>2021-06-23T15:28:09Z</time>
      </trkpt>
      <trkpt lat="47.2418" lon="-1.68451">
        <ele>60.734</ele>
        <time>2021-06-23T15:28:16Z</time>
      </trkpt>
      <trkpt lat="47.24094" lon="-1.68524">
        <ele>60.033</ele>
        <time>2021-06-23T15:28:36Z</time>
      </trkpt>
      <trkpt lat="47.24075" lon="-1.68559">
        <ele>58.915</ele>
        <time>2021-06-23T15:28:42Z</time>
      </trkpt>
      <trkpt lat="47.24065" lon="-1.68602">
        <ele>57.508</ele>
        <time>2021-06-23T15:28:48Z</time>
      </trkpt>
      <trkpt lat="47.24068" lon="-1.68653">
        <ele>56.091</ele>
        <time>2021-06-23T15:28:55Z</time>
      </trkpt>
      <trkpt lat="47.24066" lon="-1.68714">
        <ele>54.029</ele>
        <time>2021-06-23T15:29:03Z</time>
      </trkpt>
      <trkpt lat="47.24054" lon="-1.68906">
        <ele>50.839</ele>
        <time>2021-06-23T15:29:29Z</time>
      </trkpt>
      <trkpt lat="47.24035" lon="-1.69086">
        <ele>46.175</ele>
        <time>2021-06-23T15:29:54Z</time>
      </trkpt>
      <trkpt lat="47.24025" lon="-1.69146">
        <ele>44.389</ele>
        <time>2021-06-23T15:30:03Z</time>
      </trkpt>
      <trkpt lat="47.23999" lon="-1.69264">
        <ele>41.544</ele>
        <time>2021-06-23T15:30:20Z</time>
      </trkpt>
      <trkpt lat="47.2399" lon="-1.69319">
        <ele>40.528</ele>
        <time>2021-06-23T15:30:27Z</time>
      </trkpt>
      <trkpt lat="47.23984" lon="-1.69375">
        <ele>40.445</ele>
        <time>2021-06-23T15:30:35Z</time>
      </trkpt>
      <trkpt lat="47.2397" lon="-1.69585">
        <ele>37.244</ele>
        <time>2021-06-23T15:31:04Z</time>
      </trkpt>
      <trkpt lat="47.23972" lon="-1.69605">
        <ele>37.016</ele>
        <time>2021-06-23T15:31:06Z</time>
      </trkpt>
      <trkpt lat="47.24016" lon="-1.69776">
        <ele>37.333</ele>
        <time>2021-06-23T15:31:31Z</time>
      </trkpt>
      <trkpt lat="47.24029" lon="-1.69814">
        <ele>38.636</ele>
        <time>2021-06-23T15:31:37Z</time>
      </trkpt>
      <trkpt lat="47.2404" lon="-1.69865">
        <ele>40.013</ele>
        <time>2021-06-23T15:31:44Z</time>
      </trkpt>
      <trkpt lat="47.24041" lon="-1.69894">
        <ele>40.067</ele>
        <time>2021-06-23T15:31:48Z</time>
      </trkpt>
      <trkpt lat="47.24046" lon="-1.69923">
        <ele>40.235</ele>
        <time>2021-06-23T15:31:52Z</time>
      </trkpt>
      <trkpt lat="47.24056" lon="-1.69947">
        <ele>40.475</ele>
        <time>2021-06-23T15:31:56Z</time>
      </trkpt>
      <trkpt lat="47.24068" lon="-1.70001">
        <ele>40.795</ele>
        <time>2021-06-23T15:32:04Z</time>
      </trkpt>
      <trkpt lat="47.24078" lon="-1.70033">
        <ele>41.046</ele>
        <time>2021-06-23T15:32:09Z</time>
      </trkpt>
      <trkpt lat="47.24077" lon="-1.70051">
        <ele>41.031</ele>
        <time>2021-06-23T15:32:11Z</time>
      </trkpt>
      <trkpt lat="47.24088" lon="-1.70107">
        <ele>41.066</ele>
        <time>2021-06-23T15:32:19Z</time>
      </trkpt>
      <trkpt lat="47.24099" lon="-1.70138">
        <ele>40.894</ele>
        <time>2021-06-23T15:32:24Z</time>
      </trkpt>
      <trkpt lat="47.24106" lon="-1.70168">
        <ele>40.838</ele>
        <time>2021-06-23T15:32:28Z</time>
      </trkpt>
      <trkpt lat="47.24118" lon="-1.70267">
        <ele>39.913</ele>
        <time>2021-06-23T15:32:42Z</time>
      </trkpt>
      <trkpt lat="47.24128" lon="-1.70292">
        <ele>39.604</ele>
        <time>2021-06-23T15:32:46Z</time>
      </trkpt>
      <trkpt lat="47.24138" lon="-1.70291">
        <ele>39.747</ele>
        <time>2021-06-23T15:32:48Z</time>
      </trkpt>
      <trkpt lat="47.24164" lon="-1.70278">
        <ele>40.537</ele>
        <time>2021-06-23T15:32:53Z</time>
      </trkpt>
      <trkpt lat="47.24251" lon="-1.70207">
        <ele>42.871</ele>
        <time>2021-06-23T15:33:13Z</time>
      </trkpt>
      <trkpt lat="47.24275" lon="-1.70192">
        <ele>43</ele>
        <time>2021-06-23T15:33:18Z</time>
      </trkpt>
      <trkpt lat="47.24295" lon="-1.70176">
        <ele>43</ele>
        <time>2021-06-23T15:33:23Z</time>
      </trkpt>
      <trkpt lat="47.24345" lon="-1.7011">
        <ele>44.011</ele>
        <time>2021-06-23T15:33:36Z</time>
      </trkpt>
      <trkpt lat="47.24389" lon="-1.70058">
        <ele>44.968</ele>
        <time>2021-06-23T15:33:48Z</time>
      </trkpt>
      <trkpt lat="47.24408" lon="-1.70026">
        <ele>45.205</ele>
        <time>2021-06-23T15:33:53Z</time>
      </trkpt>
      <trkpt lat="47.24459" lon="-1.69959">
        <ele>46.373</ele>
        <time>2021-06-23T15:34:07Z</time>
      </trkpt>
      <trkpt lat="47.24477" lon="-1.6993">
        <ele>46.882</ele>
        <time>2021-06-23T15:34:12Z</time>
      </trkpt>
      <trkpt lat="47.24493" lon="-1.69894">
        <ele>47.119</ele>
        <time>2021-06-23T15:34:18Z</time>
      </trkpt>
      <trkpt lat="47.24512" lon="-1.69882">
        <ele>47.653</ele>
        <time>2021-06-23T15:34:22Z</time>
      </trkpt>
      <trkpt lat="47.24548" lon="-1.69865">
        <ele>48.737</ele>
        <time>2021-06-23T15:34:30Z</time>
      </trkpt>
      <trkpt lat="47.2458" lon="-1.6986">
        <ele>49.573</ele>
        <time>2021-06-23T15:34:36Z</time>
      </trkpt>
      <trkpt lat="47.24596" lon="-1.69855">
        <ele>50.168</ele>
        <time>2021-06-23T15:34:40Z</time>
      </trkpt>
      <trkpt lat="47.24637" lon="-1.69852">
        <ele>51.63</ele>
        <time>2021-06-23T15:34:48Z</time>
      </trkpt>
      <trkpt lat="47.24652" lon="-1.69846">
        <ele>52.28</ele>
        <time>2021-06-23T15:34:51Z</time>
      </trkpt>
      <trkpt lat="47.24689" lon="-1.69818">
        <ele>55.062</ele>
        <time>2021-06-23T15:34:59Z</time>
      </trkpt>
      <trkpt lat="47.24707" lon="-1.69799">
        <ele>56.471</ele>
        <time>2021-06-23T15:35:04Z</time>
      </trkpt>
      <trkpt lat="47.24732" lon="-1.69786">
        <ele>57.455</ele>
        <time>2021-06-23T15:35:09Z</time>
      </trkpt>
      <trkpt lat="47.24763" lon="-1.69762">
        <ele>58.218</ele>
        <time>2021-06-23T15:35:16Z</time>
      </trkpt>
      <trkpt lat="47.24806" lon="-1.69734">
        <ele>59.63</ele>
        <time>2021-06-23T15:35:26Z</time>
      </trkpt>
      <trkpt lat="47.24859" lon="-1.69688">
        <ele>61.549</ele>
        <time>2021-06-23T15:35:38Z</time>
      </trkpt>
      <trkpt lat="47.24864" lon="-1.69675">
        <ele>61.787</ele>
        <time>2021-06-23T15:35:40Z</time>
      </trkpt>
      <trkpt lat="47.24866" lon="-1.69652">
        <ele>61.986</ele>
        <time>2021-06-23T15:35:43Z</time>
      </trkpt>
      <trkpt lat="47.24902" lon="-1.69601">
        <ele>62</ele>
        <time>2021-06-23T15:35:53Z</time>
      </trkpt>
      <trkpt lat="47.24931" lon="-1.69572">
        <ele>61.743</ele>
        <time>2021-06-23T15:36:00Z</time>
      </trkpt>
      <trkpt lat="47.24948" lon="-1.69558">
        <ele>61.52</ele>
        <time>2021-06-23T15:36:04Z</time>
      </trkpt>
      <trkpt lat="47.24986" lon="-1.69537">
        <ele>61.284</ele>
        <time>2021-06-23T15:36:12Z</time>
      </trkpt>
      <trkpt lat="47.25025" lon="-1.69521">
        <ele>60.861</ele>
        <time>2021-06-23T15:36:20Z</time>
      </trkpt>
      <trkpt lat="47.2505" lon="-1.69512">
        <ele>60.703</ele>
        <time>2021-06-23T15:36:25Z</time>
      </trkpt>
      <trkpt lat="47.25069" lon="-1.69496">
        <ele>60.433</ele>
        <time>2021-06-23T15:36:30Z</time>
      </trkpt>
      <trkpt lat="47.25105" lon="-1.69476">
        <ele>60.098</ele>
        <time>2021-06-23T15:36:37Z</time>
      </trkpt>
      <trkpt lat="47.25115" lon="-1.69473">
        <ele>60.037</ele>
        <time>2021-06-23T15:36:39Z</time>
      </trkpt>
      <trkpt lat="47.25136" lon="-1.69475">
        <ele>60.038</ele>
        <time>2021-06-23T15:36:44Z</time>
      </trkpt>
      <trkpt lat="47.25154" lon="-1.69474">
        <ele>60.004</ele>
        <time>2021-06-23T15:36:47Z</time>
      </trkpt>
      <trkpt lat="47.25179" lon="-1.69476">
        <ele>59.95</ele>
        <time>2021-06-23T15:36:52Z</time>
      </trkpt>
      <trkpt lat="47.25231" lon="-1.69491">
        <ele>59</ele>
        <time>2021-06-23T15:37:03Z</time>
      </trkpt>
      <trkpt lat="47.25248" lon="-1.69504">
        <ele>59</ele>
        <time>2021-06-23T15:37:07Z</time>
      </trkpt>
      <trkpt lat="47.25252" lon="-1.69529">
        <ele>59</ele>
        <time>2021-06-23T15:37:10Z</time>
      </trkpt>
      <trkpt lat="47.25277" lon="-1.69643">
        <ele>58.908</ele>
        <time>2021-06-23T15:37:27Z</time>
      </trkpt>
      <trkpt lat="47.25319" lon="-1.69794">
        <ele>57.063</ele>
        <time>2021-06-23T15:37:49Z</time>
      </trkpt>
      <trkpt lat="47.25346" lon="-1.69904">
        <ele>57.692</ele>
        <time>2021-06-23T15:38:05Z</time>
      </trkpt>
      <trkpt lat="47.25355" lon="-1.69926">
        <ele>58.745</ele>
        <time>2021-06-23T15:38:08Z</time>
      </trkpt>
      <trkpt lat="47.25362" lon="-1.69955">
        <ele>60.085</ele>
        <time>2021-06-23T15:38:12Z</time>
      </trkpt>
      <trkpt lat="47.25366" lon="-1.69981">
        <ele>61.042</ele>
        <time>2021-06-23T15:38:16Z</time>
      </trkpt>
      <trkpt lat="47.25369" lon="-1.70022">
        <ele>62.405</ele>
        <time>2021-06-23T15:38:22Z</time>
      </trkpt>
      <trkpt lat="47.25376" lon="-1.70051">
        <ele>62.803</ele>
        <time>2021-06-23T15:38:26Z</time>
      </trkpt>
      <trkpt lat="47.25383" lon="-1.70064">
        <ele>63</ele>
        <time>2021-06-23T15:38:28Z</time>
      </trkpt>
      <trkpt lat="47.25399" lon="-1.70083">
        <ele>63</ele>
        <time>2021-06-23T15:38:32Z</time>
      </trkpt>
      <trkpt lat="47.25421" lon="-1.70098">
        <ele>63</ele>
        <time>2021-06-23T15:38:37Z</time>
      </trkpt>
      <trkpt lat="47.25436" lon="-1.70101">
        <ele>63.212</ele>
        <time>2021-06-23T15:38:40Z</time>
      </trkpt>
      <trkpt lat="47.25459" lon="-1.70099">
        <ele>63.661</ele>
        <time>2021-06-23T15:38:45Z</time>
      </trkpt>
      <trkpt lat="47.25517" lon="-1.70066">
        <ele>65.489</ele>
        <time>2021-06-23T15:38:57Z</time>
      </trkpt>
      <trkpt lat="47.25574" lon="-1.70045">
        <ele>67.614</ele>
        <time>2021-06-23T15:39:09Z</time>
      </trkpt>
      <trkpt lat="47.25589" lon="-1.70042">
        <ele>67.372</ele>
        <time>2021-06-23T15:39:12Z</time>
      </trkpt>
      <trkpt lat="47.25659" lon="-1.70004">
        <ele>65.185</ele>
        <time>2021-06-23T15:39:27Z</time>
      </trkpt>
      <trkpt lat="47.25686" lon="-1.69993">
        <ele>63.438</ele>
        <time>2021-06-23T15:39:33Z</time>
      </trkpt>
      <trkpt lat="47.25699" lon="-1.70011">
        <ele>63.485</ele>
        <time>2021-06-23T15:39:36Z</time>
      </trkpt>
      <trkpt lat="47.25726" lon="-1.70066">
        <ele>63.347</ele>
        <time>2021-06-23T15:39:45Z</time>
      </trkpt>
      <trkpt lat="47.25792" lon="-1.70292">
        <ele>58.789</ele>
        <time>2021-06-23T15:40:19Z</time>
      </trkpt>
      <trkpt lat="47.25777" lon="-1.70329">
        <ele>59.229</ele>
        <time>2021-06-23T15:40:25Z</time>
      </trkpt>
      <trkpt lat="47.25714" lon="-1.7038">
        <ele>61.83</ele>
        <time>2021-06-23T15:40:39Z</time>
      </trkpt>
      <trkpt lat="47.25695" lon="-1.70383">
        <ele>62.62</ele>
        <time>2021-06-23T15:40:43Z</time>
      </trkpt>
      <trkpt lat="47.2568" lon="-1.70406">
        <ele>63.2</ele>
        <time>2021-06-23T15:40:47Z</time>
      </trkpt>
      <trkpt lat="47.25619" lon="-1.70464">
        <ele>64.706</ele>
        <time>2021-06-23T15:41:02Z</time>
      </trkpt>
      <trkpt lat="47.25604" lon="-1.70486">
        <ele>64.704</ele>
        <time>2021-06-23T15:41:06Z</time>
      </trkpt>
      <trkpt lat="47.25574" lon="-1.70545">
        <ele>64.625</ele>
        <time>2021-06-23T15:41:16Z</time>
      </trkpt>
      <trkpt lat="47.2557" lon="-1.70565">
        <ele>64.413</ele>
        <time>2021-06-23T15:41:19Z</time>
      </trkpt>
      <trkpt lat="47.25572" lon="-1.70605">
        <ele>64.125</ele>
        <time>2021-06-23T15:41:24Z</time>
      </trkpt>
      <trkpt lat="47.25591" lon="-1.70721">
        <ele>63</ele>
        <time>2021-06-23T15:41:40Z</time>
      </trkpt>
      <trkpt lat="47.25601" lon="-1.70742">
        <ele>63</ele>
        <time>2021-06-23T15:41:44Z</time>
      </trkpt>
      <trkpt lat="47.25626" lon="-1.70746">
        <ele>63</ele>
        <time>2021-06-23T15:41:49Z</time>
      </trkpt>
      <trkpt lat="47.25708" lon="-1.70752">
        <ele>62.205</ele>
        <time>2021-06-23T15:42:05Z</time>
      </trkpt>
      <trkpt lat="47.25734" lon="-1.70756">
        <ele>61.62</ele>
        <time>2021-06-23T15:42:11Z</time>
      </trkpt>
      <trkpt lat="47.25761" lon="-1.70753">
        <ele>61.04</ele>
        <time>2021-06-23T15:42:16Z</time>
      </trkpt>
      <trkpt lat="47.25789" lon="-1.70741">
        <ele>60.42</ele>
        <time>2021-06-23T15:42:22Z</time>
      </trkpt>
      <trkpt lat="47.25894" lon="-1.70654">
        <ele>60.154</ele>
        <time>2021-06-23T15:42:46Z</time>
      </trkpt>
      <trkpt lat="47.25968" lon="-1.70569">
        <ele>56.994</ele>
        <time>2021-06-23T15:43:05Z</time>
      </trkpt>
      <trkpt lat="47.25997" lon="-1.7054">
        <ele>55.119</ele>
        <time>2021-06-23T15:43:12Z</time>
      </trkpt>
      <trkpt lat="47.26058" lon="-1.70491">
        <ele>54.36</ele>
        <time>2021-06-23T15:43:26Z</time>
      </trkpt>
      <trkpt lat="47.26083" lon="-1.70467">
        <ele>54.885</ele>
        <time>2021-06-23T15:43:32Z</time>
      </trkpt>
      <trkpt lat="47.2612" lon="-1.70435">
        <ele>55.695</ele>
        <time>2021-06-23T15:43:40Z</time>
      </trkpt>
      <trkpt lat="47.26179" lon="-1.70391">
        <ele>56.948</ele>
        <time>2021-06-23T15:43:53Z</time>
      </trkpt>
      <trkpt lat="47.26196" lon="-1.70376">
        <ele>57.65</ele>
        <time>2021-06-23T15:43:57Z</time>
      </trkpt>
      <trkpt lat="47.26209" lon="-1.70372">
        <ele>58.24</ele>
        <time>2021-06-23T15:44:00Z</time>
      </trkpt>
      <trkpt lat="47.26222" lon="-1.70395">
        <ele>58.87</ele>
        <time>2021-06-23T15:44:04Z</time>
      </trkpt>
      <trkpt lat="47.2626" lon="-1.70469">
        <ele>59.815</ele>
        <time>2021-06-23T15:44:17Z</time>
      </trkpt>
      <trkpt lat="47.26278" lon="-1.70509">
        <ele>60.538</ele>
        <time>2021-06-23T15:44:23Z</time>
      </trkpt>
      <trkpt lat="47.2629" lon="-1.70552">
        <ele>60.989</ele>
        <time>2021-06-23T15:44:30Z</time>
      </trkpt>
      <trkpt lat="47.26318" lon="-1.70688">
        <ele>56.377</ele>
        <time>2021-06-23T15:44:49Z</time>
      </trkpt>
      <trkpt lat="47.26324" lon="-1.70742">
        <ele>55.161</ele>
        <time>2021-06-23T15:44:56Z</time>
      </trkpt>
      <trkpt lat="47.26323" lon="-1.70795">
        <ele>56.262</ele>
        <time>2021-06-23T15:45:04Z</time>
      </trkpt>
      <trkpt lat="47.26289" lon="-1.71001">
        <ele>56.888</ele>
        <time>2021-06-23T15:45:32Z</time>
      </trkpt>
      <trkpt lat="47.26242" lon="-1.71263">
        <ele>62.769</ele>
        <time>2021-06-23T15:46:09Z</time>
      </trkpt>
      <trkpt lat="47.26219" lon="-1.7142">
        <ele>68.857</ele>
        <time>2021-06-23T15:46:31Z</time>
      </trkpt>
      <trkpt lat="47.26212" lon="-1.71446">
        <ele>70.009</ele>
        <time>2021-06-23T15:46:35Z</time>
      </trkpt>
      <trkpt lat="47.26204" lon="-1.71467">
        <ele>71.115</ele>
        <time>2021-06-23T15:46:38Z</time>
      </trkpt>
      <trkpt lat="47.26195" lon="-1.71488">
        <ele>71.932</ele>
        <time>2021-06-23T15:46:41Z</time>
      </trkpt>
      <trkpt lat="47.26152" lon="-1.7154">
        <ele>73</ele>
        <time>2021-06-23T15:46:52Z</time>
      </trkpt>
      <trkpt lat="47.26138" lon="-1.7156">
        <ele>72.965</ele>
        <time>2021-06-23T15:46:56Z</time>
      </trkpt>
      <trkpt lat="47.26125" lon="-1.7159">
        <ele>72.705</ele>
        <time>2021-06-23T15:47:01Z</time>
      </trkpt>
      <trkpt lat="47.26126" lon="-1.71626">
        <ele>72.76</ele>
        <time>2021-06-23T15:47:06Z</time>
      </trkpt>
      <trkpt lat="47.26168" lon="-1.71746">
        <ele>73</ele>
        <time>2021-06-23T15:47:24Z</time>
      </trkpt>
      <trkpt lat="47.26171" lon="-1.71773">
        <ele>73</ele>
        <time>2021-06-23T15:47:28Z</time>
      </trkpt>
      <trkpt lat="47.2615" lon="-1.71784">
        <ele>73</ele>
        <time>2021-06-23T15:47:33Z</time>
      </trkpt>
      <trkpt lat="47.26148" lon="-1.71806">
        <ele>73</ele>
        <time>2021-06-23T15:47:36Z</time>
      </trkpt>
      <trkpt lat="47.26157" lon="-1.7183">
        <ele>73</ele>
        <time>2021-06-23T15:47:39Z</time>
      </trkpt>
      <trkpt lat="47.26164" lon="-1.71866">
        <ele>73</ele>
        <time>2021-06-23T15:47:44Z</time>
      </trkpt>
      <trkpt lat="47.26174" lon="-1.71898">
        <ele>73</ele>
        <time>2021-06-23T15:47:49Z</time>
      </trkpt>
      <trkpt lat="47.26191" lon="-1.71916">
        <ele>73</ele>
        <time>2021-06-23T15:47:53Z</time>
      </trkpt>
      <trkpt lat="47.26202" lon="-1.71932">
        <ele>73</ele>
        <time>2021-06-23T15:47:56Z</time>
      </trkpt>
      <trkpt lat="47.26217" lon="-1.71963">
        <ele>73</ele>
        <time>2021-06-23T15:48:01Z</time>
      </trkpt>
      <trkpt lat="47.26229" lon="-1.71993">
        <ele>73</ele>
        <time>2021-06-23T15:48:06Z</time>
      </trkpt>
      <trkpt lat="47.26253" lon="-1.7207">
        <ele>73</ele>
        <time>2021-06-23T15:48:18Z</time>
      </trkpt>
      <trkpt lat="47.26268" lon="-1.72099">
        <ele>73.424</ele>
        <time>2021-06-23T15:48:23Z</time>
      </trkpt>
      <trkpt lat="47.26283" lon="-1.72122">
        <ele>73.744</ele>
        <time>2021-06-23T15:48:27Z</time>
      </trkpt>
      <trkpt lat="47.26302" lon="-1.72145">
        <ele>73.995</ele>
        <time>2021-06-23T15:48:32Z</time>
      </trkpt>
      <trkpt lat="47.26321" lon="-1.72163">
        <ele>73.836</ele>
        <time>2021-06-23T15:48:37Z</time>
      </trkpt>
      <trkpt lat="47.26338" lon="-1.72174">
        <ele>73.59</ele>
        <time>2021-06-23T15:48:40Z</time>
      </trkpt>
      <trkpt lat="47.26354" lon="-1.72188">
        <ele>73.25</ele>
        <time>2021-06-23T15:48:44Z</time>
      </trkpt>
      <trkpt lat="47.26393" lon="-1.72211">
        <ele>72.86</ele>
        <time>2021-06-23T15:48:52Z</time>
      </trkpt>
      <trkpt lat="47.26409" lon="-1.72232">
        <ele>72.361</ele>
        <time>2021-06-23T15:48:57Z</time>
      </trkpt>
      <trkpt lat="47.26422" lon="-1.72256">
        <ele>72.067</ele>
        <time>2021-06-23T15:49:01Z</time>
      </trkpt>
      <trkpt lat="47.26429" lon="-1.72295">
        <ele>72.179</ele>
        <time>2021-06-23T15:49:06Z</time>
      </trkpt>
      <trkpt lat="47.2643" lon="-1.72322">
        <ele>72.567</ele>
        <time>2021-06-23T15:49:10Z</time>
      </trkpt>
      <trkpt lat="47.26435" lon="-1.72363">
        <ele>72.805</ele>
        <time>2021-06-23T15:49:16Z</time>
      </trkpt>
      <trkpt lat="47.26449" lon="-1.72423">
        <ele>72.625</ele>
        <time>2021-06-23T15:49:24Z</time>
      </trkpt>
      <trkpt lat="47.26446" lon="-1.72438">
        <ele>73.01</ele>
        <time>2021-06-23T15:49:26Z</time>
      </trkpt>
      <trkpt lat="47.26437" lon="-1.7245">
        <ele>73.387</ele>
        <time>2021-06-23T15:49:29Z</time>
      </trkpt>
      <trkpt lat="47.26445" lon="-1.72482">
        <ele>74.003</ele>
        <time>2021-06-23T15:49:34Z</time>
      </trkpt>
      <trkpt lat="47.26471" lon="-1.72542">
        <ele>74.868</ele>
        <time>2021-06-23T15:49:43Z</time>
      </trkpt>
      <trkpt lat="47.26501" lon="-1.72605">
        <ele>75.791</ele>
        <time>2021-06-23T15:49:54Z</time>
      </trkpt>
      <trkpt lat="47.26517" lon="-1.72633">
        <ele>75.823</ele>
        <time>2021-06-23T15:49:59Z</time>
      </trkpt>
      <trkpt lat="47.26528" lon="-1.72664">
        <ele>75.828</ele>
        <time>2021-06-23T15:50:03Z</time>
      </trkpt>
      <trkpt lat="47.26544" lon="-1.72733">
        <ele>76</ele>
        <time>2021-06-23T15:50:13Z</time>
      </trkpt>
      <trkpt lat="47.26553" lon="-1.72766">
        <ele>75.856</ele>
        <time>2021-06-23T15:50:18Z</time>
      </trkpt>
      <trkpt lat="47.26555" lon="-1.72794">
        <ele>75.523</ele>
        <time>2021-06-23T15:50:22Z</time>
      </trkpt>
      <trkpt lat="47.26538" lon="-1.72816">
        <ele>75.052</ele>
        <time>2021-06-23T15:50:27Z</time>
      </trkpt>
      <trkpt lat="47.26514" lon="-1.7284">
        <ele>74.882</ele>
        <time>2021-06-23T15:50:32Z</time>
      </trkpt>
      <trkpt lat="47.26414" lon="-1.72956">
        <ele>70.938</ele>
        <time>2021-06-23T15:50:58Z</time>
      </trkpt>
      <trkpt lat="47.26417" lon="-1.72998">
        <ele>70.219</ele>
        <time>2021-06-23T15:51:04Z</time>
      </trkpt>
      <trkpt lat="47.26432" lon="-1.73036">
        <ele>69.856</ele>
        <time>2021-06-23T15:51:10Z</time>
      </trkpt>
      <trkpt lat="47.26448" lon="-1.73071">
        <ele>70.06</ele>
        <time>2021-06-23T15:51:15Z</time>
      </trkpt>
      <trkpt lat="47.26468" lon="-1.73169">
        <ele>71.55</ele>
        <time>2021-06-23T15:51:29Z</time>
      </trkpt>
      <trkpt lat="47.26478" lon="-1.73205">
        <ele>71.8</ele>
        <time>2021-06-23T15:51:34Z</time>
      </trkpt>
      <trkpt lat="47.2649" lon="-1.73207">
        <ele>72.071</ele>
        <time>2021-06-23T15:51:37Z</time>
      </trkpt>
      <trkpt lat="47.26508" lon="-1.73205">
        <ele>72.536</ele>
        <time>2021-06-23T15:51:41Z</time>
      </trkpt>
      <trkpt lat="47.26519" lon="-1.7321">
        <ele>72.781</ele>
        <time>2021-06-23T15:51:43Z</time>
      </trkpt>
      <trkpt lat="47.26542" lon="-1.7323">
        <ele>73</ele>
        <time>2021-06-23T15:51:48Z</time>
      </trkpt>
      <trkpt lat="47.26556" lon="-1.73231">
        <ele>73.248</ele>
        <time>2021-06-23T15:51:51Z</time>
      </trkpt>
      <trkpt lat="47.2657" lon="-1.73247">
        <ele>73.089</ele>
        <time>2021-06-23T15:51:55Z</time>
      </trkpt>
      <trkpt lat="47.26586" lon="-1.73279">
        <ele>72.229</ele>
        <time>2021-06-23T15:52:00Z</time>
      </trkpt>
      <trkpt lat="47.26604" lon="-1.73303">
        <ele>71.612</ele>
        <time>2021-06-23T15:52:05Z</time>
      </trkpt>
      <trkpt lat="47.2662" lon="-1.7334">
        <ele>70.463</ele>
        <time>2021-06-23T15:52:11Z</time>
      </trkpt>
      <trkpt lat="47.26635" lon="-1.73381">
        <ele>69.627</ele>
        <time>2021-06-23T15:52:17Z</time>
      </trkpt>
      <trkpt lat="47.26645" lon="-1.73422">
        <ele>69.014</ele>
        <time>2021-06-23T15:52:23Z</time>
      </trkpt>
      <trkpt lat="47.26652" lon="-1.73464">
        <ele>67.789</ele>
        <time>2021-06-23T15:52:29Z</time>
      </trkpt>
      <trkpt lat="47.26651" lon="-1.73477">
        <ele>67.379</ele>
        <time>2021-06-23T15:52:31Z</time>
      </trkpt>
      <trkpt lat="47.26639" lon="-1.73552">
        <ele>65.721</ele>
        <time>2021-06-23T15:52:41Z</time>
      </trkpt>
      <trkpt lat="47.26641" lon="-1.73575">
        <ele>65.71</ele>
        <time>2021-06-23T15:52:44Z</time>
      </trkpt>
      <trkpt lat="47.2666" lon="-1.73569">
        <ele>66.245</ele>
        <time>2021-06-23T15:52:48Z</time>
      </trkpt>
      <trkpt lat="47.26674" lon="-1.73578">
        <ele>66.762</ele>
        <time>2021-06-23T15:52:51Z</time>
      </trkpt>
      <trkpt lat="47.26704" lon="-1.73619">
        <ele>67.238</ele>
        <time>2021-06-23T15:52:59Z</time>
      </trkpt>
      <trkpt lat="47.26716" lon="-1.73642">
        <ele>67.204</ele>
        <time>2021-06-23T15:53:03Z</time>
      </trkpt>
      <trkpt lat="47.26735" lon="-1.7367">
        <ele>67.256</ele>
        <time>2021-06-23T15:53:09Z</time>
      </trkpt>
      <trkpt lat="47.26773" lon="-1.7371">
        <ele>68.51</ele>
        <time>2021-06-23T15:53:18Z</time>
      </trkpt>
      <trkpt lat="47.26793" lon="-1.7374">
        <ele>69.22</ele>
        <time>2021-06-23T15:53:24Z</time>
      </trkpt>
      <trkpt lat="47.26803" lon="-1.73768">
        <ele>69.455</ele>
        <time>2021-06-23T15:53:28Z</time>
      </trkpt>
      <trkpt lat="47.26835" lon="-1.73924">
        <ele>68.856</ele>
        <time>2021-06-23T15:53:50Z</time>
      </trkpt>
      <trkpt lat="47.26851" lon="-1.74037">
        <ele>66.946</ele>
        <time>2021-06-23T15:54:06Z</time>
      </trkpt>
      <trkpt lat="47.26853" lon="-1.74075">
        <ele>66.278</ele>
        <time>2021-06-23T15:54:11Z</time>
      </trkpt>
      <trkpt lat="47.26853" lon="-1.74114">
        <ele>65.803</ele>
        <time>2021-06-23T15:54:16Z</time>
      </trkpt>
      <trkpt lat="47.26871" lon="-1.74187">
        <ele>66.811</ele>
        <time>2021-06-23T15:54:27Z</time>
      </trkpt>
      <trkpt lat="47.26883" lon="-1.74222">
        <ele>67.507</ele>
        <time>2021-06-23T15:54:32Z</time>
      </trkpt>
      <trkpt lat="47.26895" lon="-1.74254">
        <ele>67.885</ele>
        <time>2021-06-23T15:54:37Z</time>
      </trkpt>
      <trkpt lat="47.26908" lon="-1.74282">
        <ele>68.205</ele>
        <time>2021-06-23T15:54:42Z</time>
      </trkpt>
      <trkpt lat="47.26907" lon="-1.74296">
        <ele>68.19</ele>
        <time>2021-06-23T15:54:44Z</time>
      </trkpt>
      <trkpt lat="47.26889" lon="-1.74324">
        <ele>67.81</ele>
        <time>2021-06-23T15:54:49Z</time>
      </trkpt>
      <trkpt lat="47.26881" lon="-1.74363">
        <ele>67.66</ele>
        <time>2021-06-23T15:54:55Z</time>
      </trkpt>
      <trkpt lat="47.26881" lon="-1.74407">
        <ele>66.899</ele>
        <time>2021-06-23T15:55:01Z</time>
      </trkpt>
      <trkpt lat="47.26875" lon="-1.7445">
        <ele>65.862</ele>
        <time>2021-06-23T15:55:07Z</time>
      </trkpt>
      <trkpt lat="47.26873" lon="-1.74488">
        <ele>64.958</ele>
        <time>2021-06-23T15:55:12Z</time>
      </trkpt>
      <trkpt lat="47.26839" lon="-1.74506">
        <ele>62.366</ele>
        <time>2021-06-23T15:55:19Z</time>
      </trkpt>
      <trkpt lat="47.26814" lon="-1.74532">
        <ele>60.072</ele>
        <time>2021-06-23T15:55:25Z</time>
      </trkpt>
      <trkpt lat="47.26768" lon="-1.74598">
        <ele>55.719</ele>
        <time>2021-06-23T15:55:38Z</time>
      </trkpt>
      <trkpt lat="47.26745" lon="-1.74618">
        <ele>53.893</ele>
        <time>2021-06-23T15:55:43Z</time>
      </trkpt>
      <trkpt lat="47.26726" lon="-1.74628">
        <ele>52.444</ele>
        <time>2021-06-23T15:55:47Z</time>
      </trkpt>
      <trkpt lat="47.26639" lon="-1.74696">
        <ele>45.607</ele>
        <time>2021-06-23T15:56:07Z</time>
      </trkpt>
      <trkpt lat="47.26563" lon="-1.74753">
        <ele>41.358</ele>
        <time>2021-06-23T15:56:24Z</time>
      </trkpt>
      <trkpt lat="47.2651" lon="-1.74784">
        <ele>37.376</ele>
        <time>2021-06-23T15:56:35Z</time>
      </trkpt>
      <trkpt lat="47.2651" lon="-1.74801">
        <ele>37.069</ele>
        <time>2021-06-23T15:56:38Z</time>
      </trkpt>
      <trkpt lat="47.26524" lon="-1.74829">
        <ele>37.046</ele>
        <time>2021-06-23T15:56:42Z</time>
      </trkpt>
      <trkpt lat="47.26574" lon="-1.74907">
        <ele>37.027</ele>
        <time>2021-06-23T15:56:57Z</time>
      </trkpt>
      <trkpt lat="47.26588" lon="-1.74938">
        <ele>36.88</ele>
        <time>2021-06-23T15:57:02Z</time>
      </trkpt>
      <trkpt lat="47.26598" lon="-1.74972">
        <ele>37.046</ele>
        <time>2021-06-23T15:57:07Z</time>
      </trkpt>
      <trkpt lat="47.26613" lon="-1.75032">
        <ele>37.191</ele>
        <time>2021-06-23T15:57:16Z</time>
      </trkpt>
      <trkpt lat="47.26635" lon="-1.75105">
        <ele>35.165</ele>
        <time>2021-06-23T15:57:27Z</time>
      </trkpt>
      <trkpt lat="47.26649" lon="-1.75154">
        <ele>32.533</ele>
        <time>2021-06-23T15:57:34Z</time>
      </trkpt>
      <trkpt lat="47.26659" lon="-1.7521">
        <ele>30.041</ele>
        <time>2021-06-23T15:57:42Z</time>
      </trkpt>
      <trkpt lat="47.26663" lon="-1.75259">
        <ele>28.199</ele>
        <time>2021-06-23T15:57:49Z</time>
      </trkpt>
      <trkpt lat="47.2667" lon="-1.75272">
        <ele>27.87</ele>
        <time>2021-06-23T15:57:51Z</time>
      </trkpt>
      <trkpt lat="47.26692" lon="-1.75245">
        <ele>29.359</ele>
        <time>2021-06-23T15:57:57Z</time>
      </trkpt>
      <trkpt lat="47.26734" lon="-1.75223">
        <ele>32.89</ele>
        <time>2021-06-23T15:58:05Z</time>
      </trkpt>
      <trkpt lat="47.26749" lon="-1.75218">
        <ele>34.967</ele>
        <time>2021-06-23T15:58:09Z</time>
      </trkpt>
      <trkpt lat="47.26761" lon="-1.75221">
        <ele>36.063</ele>
        <time>2021-06-23T15:58:11Z</time>
      </trkpt>
      <trkpt lat="47.26779" lon="-1.75239">
        <ele>36.195</ele>
        <time>2021-06-23T15:58:15Z</time>
      </trkpt>
      <trkpt lat="47.268" lon="-1.75273">
        <ele>34.287</ele>
        <time>2021-06-23T15:58:21Z</time>
      </trkpt>
      <trkpt lat="47.2683" lon="-1.75286">
        <ele>33.95</ele>
        <time>2021-06-23T15:58:28Z</time>
      </trkpt>
      <trkpt lat="47.26843" lon="-1.75287">
        <ele>33.429</ele>
        <time>2021-06-23T15:58:30Z</time>
      </trkpt>
      <trkpt lat="47.26852" lon="-1.75285">
        <ele>33.333</ele>
        <time>2021-06-23T15:58:32Z</time>
      </trkpt>
      <trkpt lat="47.26861" lon="-1.75289">
        <ele>32.527</ele>
        <time>2021-06-23T15:58:34Z</time>
      </trkpt>
      <trkpt lat="47.26879" lon="-1.75284">
        <ele>33.097</ele>
        <time>2021-06-23T15:58:38Z</time>
      </trkpt>
      <trkpt lat="47.26913" lon="-1.75284">
        <ele>33.217</ele>
        <time>2021-06-23T15:58:45Z</time>
      </trkpt>
      <trkpt lat="47.26932" lon="-1.7529">
        <ele>34.369</ele>
        <time>2021-06-23T15:58:48Z</time>
      </trkpt>
      <trkpt lat="47.26957" lon="-1.75313">
        <ele>39.064</ele>
        <time>2021-06-23T15:58:54Z</time>
      </trkpt>
      <trkpt lat="47.26989" lon="-1.75339">
        <ele>47.333</ele>
        <time>2021-06-23T15:59:02Z</time>
      </trkpt>
      <trkpt lat="47.27014" lon="-1.75362">
        <ele>50.373</ele>
        <time>2021-06-23T15:59:08Z</time>
      </trkpt>
      <trkpt lat="47.27032" lon="-1.75373">
        <ele>52.034</ele>
        <time>2021-06-23T15:59:11Z</time>
      </trkpt>
      <trkpt lat="47.27039" lon="-1.7538">
        <ele>53.116</ele>
        <time>2021-06-23T15:59:13Z</time>
      </trkpt>
      <trkpt lat="47.27046" lon="-1.75397">
        <ele>54.036</ele>
        <time>2021-06-23T15:59:16Z</time>
      </trkpt>
      <trkpt lat="47.27046" lon="-1.75413">
        <ele>54.477</ele>
        <time>2021-06-23T15:59:18Z</time>
      </trkpt>
      <trkpt lat="47.27044" lon="-1.7543">
        <ele>54.896</ele>
        <time>2021-06-23T15:59:20Z</time>
      </trkpt>
      <trkpt lat="47.27039" lon="-1.7546">
        <ele>56.02</ele>
        <time>2021-06-23T15:59:25Z</time>
      </trkpt>
      <trkpt lat="47.27037" lon="-1.75554">
        <ele>56.688</ele>
        <time>2021-06-23T15:59:37Z</time>
      </trkpt>
      <trkpt lat="47.27045" lon="-1.75548">
        <ele>57.476</ele>
        <time>2021-06-23T15:59:39Z</time>
      </trkpt>
      <trkpt lat="47.27055" lon="-1.75548">
        <ele>58.205</ele>
        <time>2021-06-23T15:59:41Z</time>
      </trkpt>
      <trkpt lat="47.27067" lon="-1.75541">
        <ele>59.147</ele>
        <time>2021-06-23T15:59:44Z</time>
      </trkpt>
      <trkpt lat="47.27104" lon="-1.7554">
        <ele>61.07</ele>
        <time>2021-06-23T15:59:51Z</time>
      </trkpt>
      <trkpt lat="47.27115" lon="-1.75536">
        <ele>61.54</ele>
        <time>2021-06-23T15:59:53Z</time>
      </trkpt>
      <trkpt lat="47.27141" lon="-1.75523">
        <ele>62.69</ele>
        <time>2021-06-23T15:59:59Z</time>
      </trkpt>
      <trkpt lat="47.27212" lon="-1.75478">
        <ele>65.76</ele>
        <time>2021-06-23T16:00:14Z</time>
      </trkpt>
      <trkpt lat="47.27256" lon="-1.75455">
        <ele>66.849</ele>
        <time>2021-06-23T16:00:24Z</time>
      </trkpt>
      <trkpt lat="47.27274" lon="-1.75449">
        <ele>67.365</ele>
        <time>2021-06-23T16:00:28Z</time>
      </trkpt>
      <trkpt lat="47.27444" lon="-1.7541">
        <ele>71.873</ele>
        <time>2021-06-23T16:01:02Z</time>
      </trkpt>
      <trkpt lat="47.27461" lon="-1.75399">
        <ele>72.084</ele>
        <time>2021-06-23T16:01:06Z</time>
      </trkpt>
      <trkpt lat="47.27474" lon="-1.75336">
        <ele>73.058</ele>
        <time>2021-06-23T16:01:15Z</time>
      </trkpt>
      <trkpt lat="47.27485" lon="-1.75306">
        <ele>73.518</ele>
        <time>2021-06-23T16:01:19Z</time>
      </trkpt>
      <trkpt lat="47.27484" lon="-1.75292">
        <ele>73.724</ele>
        <time>2021-06-23T16:01:21Z</time>
      </trkpt>
      <trkpt lat="47.27475" lon="-1.75259">
        <ele>74</ele>
        <time>2021-06-23T16:01:26Z</time>
      </trkpt>
      <trkpt lat="47.27472" lon="-1.75241">
        <ele>74</ele>
        <time>2021-06-23T16:01:29Z</time>
      </trkpt>
      <trkpt lat="47.27472" lon="-1.75208">
        <ele>74</ele>
        <time>2021-06-23T16:01:33Z</time>
      </trkpt>
      <trkpt lat="47.27463" lon="-1.75098">
        <ele>73.36</ele>
        <time>2021-06-23T16:01:48Z</time>
      </trkpt>
      <trkpt lat="47.27471" lon="-1.75062">
        <ele>72.691</ele>
        <time>2021-06-23T16:01:53Z</time>
      </trkpt>
      <trkpt lat="47.27493" lon="-1.75045">
        <ele>72.42</ele>
        <time>2021-06-23T16:01:58Z</time>
      </trkpt>
      <trkpt lat="47.2754" lon="-1.75022">
        <ele>72.132</ele>
        <time>2021-06-23T16:02:08Z</time>
      </trkpt>
      <trkpt lat="47.27588" lon="-1.75005">
        <ele>73.04</ele>
        <time>2021-06-23T16:02:18Z</time>
      </trkpt>
      <trkpt lat="47.2763" lon="-1.74999">
        <ele>74.125</ele>
        <time>2021-06-23T16:02:27Z</time>
      </trkpt>
      <trkpt lat="47.27676" lon="-1.74977">
        <ele>74.708</ele>
        <time>2021-06-23T16:02:36Z</time>
      </trkpt>
      <trkpt lat="47.2771" lon="-1.74952">
        <ele>74.47</ele>
        <time>2021-06-23T16:02:44Z</time>
      </trkpt>
      <trkpt lat="47.2772" lon="-1.74951">
        <ele>74.26</ele>
        <time>2021-06-23T16:02:46Z</time>
      </trkpt>
      <trkpt lat="47.27733" lon="-1.74943">
        <ele>73.993</ele>
        <time>2021-06-23T16:02:48Z</time>
      </trkpt>
      <trkpt lat="47.27808" lon="-1.7485">
        <ele>72.217</ele>
        <time>2021-06-23T16:03:08Z</time>
      </trkpt>
      <trkpt lat="47.27881" lon="-1.74771">
        <ele>70.895</ele>
        <time>2021-06-23T16:03:26Z</time>
      </trkpt>
      <trkpt lat="47.27928" lon="-1.74725">
        <ele>70.377</ele>
        <time>2021-06-23T16:03:38Z</time>
      </trkpt>
      <trkpt lat="47.27979" lon="-1.74668">
        <ele>72.017</ele>
        <time>2021-06-23T16:03:50Z</time>
      </trkpt>
      <trkpt lat="47.28009" lon="-1.7463">
        <ele>73.257</ele>
        <time>2021-06-23T16:03:58Z</time>
      </trkpt>
      <trkpt lat="47.28021" lon="-1.74619">
        <ele>73.702</ele>
        <time>2021-06-23T16:04:01Z</time>
      </trkpt>
      <trkpt lat="47.28056" lon="-1.74575">
        <ele>74.925</ele>
        <time>2021-06-23T16:04:10Z</time>
      </trkpt>
      <trkpt lat="47.281" lon="-1.74527">
        <ele>75.854</ele>
        <time>2021-06-23T16:04:21Z</time>
      </trkpt>
      <trkpt lat="47.28121" lon="-1.74508">
        <ele>75.987</ele>
        <time>2021-06-23T16:04:26Z</time>
      </trkpt>
      <trkpt lat="47.28244" lon="-1.74379">
        <ele>76.529</ele>
        <time>2021-06-23T16:04:56Z</time>
      </trkpt>
      <trkpt lat="47.2826" lon="-1.74367">
        <ele>76.948</ele>
        <time>2021-06-23T16:05:00Z</time>
      </trkpt>
      <trkpt lat="47.2831" lon="-1.74313">
        <ele>78.517</ele>
        <time>2021-06-23T16:05:12Z</time>
      </trkpt>
      <trkpt lat="47.2834" lon="-1.74284">
        <ele>79.053</ele>
        <time>2021-06-23T16:05:20Z</time>
      </trkpt>
      <trkpt lat="47.28361" lon="-1.74262">
        <ele>80.373</ele>
        <time>2021-06-23T16:05:25Z</time>
      </trkpt>
      <trkpt lat="47.28382" lon="-1.74234">
        <ele>81.6</ele>
        <time>2021-06-23T16:05:30Z</time>
      </trkpt>
      <trkpt lat="47.28391" lon="-1.74218">
        <ele>82</ele>
        <time>2021-06-23T16:05:33Z</time>
      </trkpt>
      <trkpt lat="47.2844" lon="-1.74153">
        <ele>82</ele>
        <time>2021-06-23T16:05:47Z</time>
      </trkpt>
      <trkpt lat="47.28474" lon="-1.74111">
        <ele>82</ele>
        <time>2021-06-23T16:05:55Z</time>
      </trkpt>
      <trkpt lat="47.28529" lon="-1.74036">
        <ele>81</ele>
        <time>2021-06-23T16:06:10Z</time>
      </trkpt>
      <trkpt lat="47.2859" lon="-1.7396">
        <ele>80.747</ele>
        <time>2021-06-23T16:06:26Z</time>
      </trkpt>
      <trkpt lat="47.28668" lon="-1.73856">
        <ele>80.804</ele>
        <time>2021-06-23T16:06:47Z</time>
      </trkpt>
      <trkpt lat="47.28757" lon="-1.73747">
        <ele>79.074</ele>
        <time>2021-06-23T16:07:11Z</time>
      </trkpt>
      <trkpt lat="47.28775" lon="-1.73731">
        <ele>79</ele>
        <time>2021-06-23T16:07:15Z</time>
      </trkpt>
      <trkpt lat="47.28795" lon="-1.73701">
        <ele>78.714</ele>
        <time>2021-06-23T16:07:20Z</time>
      </trkpt>
      <trkpt lat="47.28803" lon="-1.73691">
        <ele>78.566</ele>
        <time>2021-06-23T16:07:23Z</time>
      </trkpt>
      <trkpt lat="47.28811" lon="-1.73678">
        <ele>78.355</ele>
        <time>2021-06-23T16:07:25Z</time>
      </trkpt>
      <trkpt lat="47.28855" lon="-1.73594">
        <ele>77.033</ele>
        <time>2021-06-23T16:07:39Z</time>
      </trkpt>
      <trkpt lat="47.28877" lon="-1.73556">
        <ele>76.285</ele>
        <time>2021-06-23T16:07:46Z</time>
      </trkpt>
      <trkpt lat="47.28889" lon="-1.73533">
        <ele>76.033</ele>
        <time>2021-06-23T16:07:50Z</time>
      </trkpt>
      <trkpt lat="47.28992" lon="-1.73362">
        <ele>73</ele>
        <time>2021-06-23T16:08:21Z</time>
      </trkpt>
      <trkpt lat="47.29026" lon="-1.73294">
        <ele>73</ele>
        <time>2021-06-23T16:08:33Z</time>
      </trkpt>
      <trkpt lat="47.2904" lon="-1.73272">
        <ele>73</ele>
        <time>2021-06-23T16:08:37Z</time>
      </trkpt>
      <trkpt lat="47.29104" lon="-1.73174">
        <ele>73</ele>
        <time>2021-06-23T16:08:55Z</time>
      </trkpt>
      <trkpt lat="47.29138" lon="-1.73116">
        <ele>73.936</ele>
        <time>2021-06-23T16:09:06Z</time>
      </trkpt>
      <trkpt lat="47.29147" lon="-1.73095">
        <ele>74.669</ele>
        <time>2021-06-23T16:09:09Z</time>
      </trkpt>
      <trkpt lat="47.2916" lon="-1.73076">
        <ele>75.136</ele>
        <time>2021-06-23T16:09:13Z</time>
      </trkpt>
      <trkpt lat="47.29179" lon="-1.73046">
        <ele>75.618</ele>
        <time>2021-06-23T16:09:18Z</time>
      </trkpt>
      <trkpt lat="47.29191" lon="-1.73018">
        <ele>76.053</ele>
        <time>2021-06-23T16:09:23Z</time>
      </trkpt>
      <trkpt lat="47.2921" lon="-1.72946">
        <ele>77.169</ele>
        <time>2021-06-23T16:09:33Z</time>
      </trkpt>
      <trkpt lat="47.29216" lon="-1.72915">
        <ele>77.634</ele>
        <time>2021-06-23T16:09:38Z</time>
      </trkpt>
      <trkpt lat="47.29229" lon="-1.7288">
        <ele>77.93</ele>
        <time>2021-06-23T16:09:43Z</time>
      </trkpt>
      <trkpt lat="47.29237" lon="-1.72861">
        <ele>77.901</ele>
        <time>2021-06-23T16:09:46Z</time>
      </trkpt>
      <trkpt lat="47.29247" lon="-1.72828">
        <ele>78</ele>
        <time>2021-06-23T16:09:51Z</time>
      </trkpt>
      <trkpt lat="47.29261" lon="-1.72531">
        <ele>77.038</ele>
        <time>2021-06-23T16:10:31Z</time>
      </trkpt>
      <trkpt lat="47.29262" lon="-1.72494">
        <ele>76.946</ele>
        <time>2021-06-23T16:10:36Z</time>
      </trkpt>
      <trkpt lat="47.29267" lon="-1.72458">
        <ele>76.393</ele>
        <time>2021-06-23T16:10:41Z</time>
      </trkpt>
      <trkpt lat="47.29291" lon="-1.72442">
        <ele>76.123</ele>
        <time>2021-06-23T16:10:47Z</time>
      </trkpt>
      <trkpt lat="47.29317" lon="-1.7243">
        <ele>75.938</ele>
        <time>2021-06-23T16:10:52Z</time>
      </trkpt>
      <trkpt lat="47.29341" lon="-1.72416">
        <ele>75.923</ele>
        <time>2021-06-23T16:10:57Z</time>
      </trkpt>
      <trkpt lat="47.29364" lon="-1.72405">
        <ele>76</ele>
        <time>2021-06-23T16:11:02Z</time>
      </trkpt>
      <trkpt lat="47.29385" lon="-1.72388">
        <ele>76</ele>
        <time>2021-06-23T16:11:07Z</time>
      </trkpt>
      <trkpt lat="47.29409" lon="-1.72382">
        <ele>75.979</ele>
        <time>2021-06-23T16:11:12Z</time>
      </trkpt>
      <trkpt lat="47.29434" lon="-1.72373">
        <ele>76</ele>
        <time>2021-06-23T16:11:17Z</time>
      </trkpt>
      <trkpt lat="47.29453" lon="-1.72348">
        <ele>75.81</ele>
        <time>2021-06-23T16:11:22Z</time>
      </trkpt>
      <trkpt lat="47.29497" lon="-1.72237">
        <ele>73.925</ele>
        <time>2021-06-23T16:11:40Z</time>
      </trkpt>
      <trkpt lat="47.29518" lon="-1.722">
        <ele>73.475</ele>
        <time>2021-06-23T16:11:46Z</time>
      </trkpt>
      <trkpt lat="47.29567" lon="-1.72138">
        <ele>71.234</ele>
        <time>2021-06-23T16:11:59Z</time>
      </trkpt>
      <trkpt lat="47.29586" lon="-1.72103">
        <ele>70.1</ele>
        <time>2021-06-23T16:12:05Z</time>
      </trkpt>
      <trkpt lat="47.2959" lon="-1.7206">
        <ele>69.99</ele>
        <time>2021-06-23T16:12:11Z</time>
      </trkpt>
      <trkpt lat="47.29592" lon="-1.71928">
        <ele>70.119</ele>
        <time>2021-06-23T16:12:29Z</time>
      </trkpt>
      <trkpt lat="47.29589" lon="-1.71885">
        <ele>70.846</ele>
        <time>2021-06-23T16:12:35Z</time>
      </trkpt>
      <trkpt lat="47.29579" lon="-1.71848">
        <ele>71.345</ele>
        <time>2021-06-23T16:12:40Z</time>
      </trkpt>
      <trkpt lat="47.29553" lon="-1.71776">
        <ele>70.766</ele>
        <time>2021-06-23T16:12:51Z</time>
      </trkpt>
      <trkpt lat="47.29521" lon="-1.71702">
        <ele>69.375</ele>
        <time>2021-06-23T16:13:03Z</time>
      </trkpt>
      <trkpt lat="47.29519" lon="-1.71679">
        <ele>68.671</ele>
        <time>2021-06-23T16:13:06Z</time>
      </trkpt>
      <trkpt lat="47.29543" lon="-1.71668">
        <ele>68.309</ele>
        <time>2021-06-23T16:13:11Z</time>
      </trkpt>
      <trkpt lat="47.29569" lon="-1.71662">
        <ele>68.048</ele>
        <time>2021-06-23T16:13:16Z</time>
      </trkpt>
      <trkpt lat="47.29588" lon="-1.71661">
        <ele>67.995</ele>
        <time>2021-06-23T16:13:20Z</time>
      </trkpt>
      <trkpt lat="47.29587" lon="-1.71636">
        <ele>67.621</ele>
        <time>2021-06-23T16:13:24Z</time>
      </trkpt>
      <trkpt lat="47.29565" lon="-1.71567">
        <ele>66.599</ele>
        <time>2021-06-23T16:13:34Z</time>
      </trkpt>
      <trkpt lat="47.2957" lon="-1.71533">
        <ele>66.082</ele>
        <time>2021-06-23T16:13:39Z</time>
      </trkpt>
      <trkpt lat="47.29578" lon="-1.71501">
        <ele>65.296</ele>
        <time>2021-06-23T16:13:43Z</time>
      </trkpt>
      <trkpt lat="47.29583" lon="-1.71435">
        <ele>62.758</ele>
        <time>2021-06-23T16:13:52Z</time>
      </trkpt>
      <trkpt lat="47.29582" lon="-1.71403">
        <ele>60.69</ele>
        <time>2021-06-23T16:13:57Z</time>
      </trkpt>
      <trkpt lat="47.29588" lon="-1.71376">
        <ele>59.623</ele>
        <time>2021-06-23T16:14:01Z</time>
      </trkpt>
      <trkpt lat="47.29592" lon="-1.71349">
        <ele>58.389</ele>
        <time>2021-06-23T16:14:04Z</time>
      </trkpt>
      <trkpt lat="47.29604" lon="-1.71316">
        <ele>57.826</ele>
        <time>2021-06-23T16:14:09Z</time>
      </trkpt>
      <trkpt lat="47.29613" lon="-1.71285">
        <ele>56.356</ele>
        <time>2021-06-23T16:14:14Z</time>
      </trkpt>
      <trkpt lat="47.29651" lon="-1.71257">
        <ele>54.39</ele>
        <time>2021-06-23T16:14:22Z</time>
      </trkpt>
      <trkpt lat="47.29662" lon="-1.71246">
        <ele>54.383</ele>
        <time>2021-06-23T16:14:25Z</time>
      </trkpt>
      <trkpt lat="47.29669" lon="-1.71235">
        <ele>54.808</ele>
        <time>2021-06-23T16:14:27Z</time>
      </trkpt>
      <trkpt lat="47.29673" lon="-1.71221">
        <ele>55.324</ele>
        <time>2021-06-23T16:14:29Z</time>
      </trkpt>
      <trkpt lat="47.29679" lon="-1.71181">
        <ele>55.536</ele>
        <time>2021-06-23T16:14:35Z</time>
      </trkpt>
      <trkpt lat="47.29678" lon="-1.71168">
        <ele>55.259</ele>
        <time>2021-06-23T16:14:37Z</time>
      </trkpt>
      <trkpt lat="47.29668" lon="-1.71161">
        <ele>54.447</ele>
        <time>2021-06-23T16:14:39Z</time>
      </trkpt>
      <trkpt lat="47.2964" lon="-1.71134">
        <ele>54.028</ele>
        <time>2021-06-23T16:14:46Z</time>
      </trkpt>
      <trkpt lat="47.29625" lon="-1.71114">
        <ele>54.313</ele>
        <time>2021-06-23T16:14:50Z</time>
      </trkpt>
      <trkpt lat="47.296" lon="-1.71063">
        <ele>56.634</ele>
        <time>2021-06-23T16:14:58Z</time>
      </trkpt>
      <trkpt lat="47.29578" lon="-1.71014">
        <ele>57.633</ele>
        <time>2021-06-23T16:15:06Z</time>
      </trkpt>
      <trkpt lat="47.29572" lon="-1.70997">
        <ele>58.096</ele>
        <time>2021-06-23T16:15:09Z</time>
      </trkpt>
      <trkpt lat="47.29564" lon="-1.70982">
        <ele>58.455</ele>
        <time>2021-06-23T16:15:11Z</time>
      </trkpt>
      <trkpt lat="47.29557" lon="-1.70966">
        <ele>58.421</ele>
        <time>2021-06-23T16:15:14Z</time>
      </trkpt>
      <trkpt lat="47.29535" lon="-1.70926">
        <ele>58.424</ele>
        <time>2021-06-23T16:15:21Z</time>
      </trkpt>
      <trkpt lat="47.29492" lon="-1.70815">
        <ele>60.927</ele>
        <time>2021-06-23T16:15:38Z</time>
      </trkpt>
      <trkpt lat="47.29488" lon="-1.70802">
        <ele>61.097</ele>
        <time>2021-06-23T16:15:40Z</time>
      </trkpt>
      <trkpt lat="47.29481" lon="-1.70787">
        <ele>61.567</ele>
        <time>2021-06-23T16:15:43Z</time>
      </trkpt>
      <trkpt lat="47.29461" lon="-1.70754">
        <ele>62.951</ele>
        <time>2021-06-23T16:15:49Z</time>
      </trkpt>
      <trkpt lat="47.29428" lon="-1.70739">
        <ele>65.141</ele>
        <time>2021-06-23T16:15:56Z</time>
      </trkpt>
      <trkpt lat="47.29417" lon="-1.70731">
        <ele>65.739</ele>
        <time>2021-06-23T16:15:58Z</time>
      </trkpt>
      <trkpt lat="47.29409" lon="-1.70717">
        <ele>65.995</ele>
        <time>2021-06-23T16:16:01Z</time>
      </trkpt>
      <trkpt lat="47.29395" lon="-1.707">
        <ele>66.067</ele>
        <time>2021-06-23T16:16:04Z</time>
      </trkpt>
      <trkpt lat="47.29386" lon="-1.70692">
        <ele>66.19</ele>
        <time>2021-06-23T16:16:06Z</time>
      </trkpt>
      <trkpt lat="47.29369" lon="-1.7067">
        <ele>66.253</ele>
        <time>2021-06-23T16:16:11Z</time>
      </trkpt>
      <trkpt lat="47.29328" lon="-1.70624">
        <ele>65.284</ele>
        <time>2021-06-23T16:16:21Z</time>
      </trkpt>
      <trkpt lat="47.29305" lon="-1.7058">
        <ele>63.015</ele>
        <time>2021-06-23T16:16:29Z</time>
      </trkpt>
      <trkpt lat="47.29294" lon="-1.70578">
        <ele>62.495</ele>
        <time>2021-06-23T16:16:31Z</time>
      </trkpt>
      <trkpt lat="47.29283" lon="-1.7059">
        <ele>62.425</ele>
        <time>2021-06-23T16:16:34Z</time>
      </trkpt>
      <trkpt lat="47.29252" lon="-1.70636">
        <ele>63.718</ele>
        <time>2021-06-23T16:16:43Z</time>
      </trkpt>
      <trkpt lat="47.29239" lon="-1.70668">
        <ele>64.833</ele>
        <time>2021-06-23T16:16:48Z</time>
      </trkpt>
      <trkpt lat="47.29229" lon="-1.70679">
        <ele>65.069</ele>
        <time>2021-06-23T16:16:50Z</time>
      </trkpt>
      <trkpt lat="47.29202" lon="-1.70695">
        <ele>65.098</ele>
        <time>2021-06-23T16:16:56Z</time>
      </trkpt>
      <trkpt lat="47.29156" lon="-1.70716">
        <ele>67.492</ele>
        <time>2021-06-23T16:17:05Z</time>
      </trkpt>
      <trkpt lat="47.29139" lon="-1.70726">
        <ele>68.874</ele>
        <time>2021-06-23T16:17:09Z</time>
      </trkpt>
      <trkpt lat="47.29098" lon="-1.70757">
        <ele>70.909</ele>
        <time>2021-06-23T16:17:18Z</time>
      </trkpt>
      <trkpt lat="47.29089" lon="-1.7077">
        <ele>71.241</ele>
        <time>2021-06-23T16:17:21Z</time>
      </trkpt>
      <trkpt lat="47.29073" lon="-1.70801">
        <ele>72.036</ele>
        <time>2021-06-23T16:17:26Z</time>
      </trkpt>
      <trkpt lat="47.29061" lon="-1.70815">
        <ele>72.522</ele>
        <time>2021-06-23T16:17:29Z</time>
      </trkpt>
      <trkpt lat="47.29042" lon="-1.70828">
        <ele>73.205</ele>
        <time>2021-06-23T16:17:34Z</time>
      </trkpt>
      <trkpt lat="47.29029" lon="-1.70832">
        <ele>73.613</ele>
        <time>2021-06-23T16:17:36Z</time>
      </trkpt>
      <trkpt lat="47.29003" lon="-1.70834">
        <ele>74.335</ele>
        <time>2021-06-23T16:17:41Z</time>
      </trkpt>
      <trkpt lat="47.28984" lon="-1.70833">
        <ele>74.768</ele>
        <time>2021-06-23T16:17:45Z</time>
      </trkpt>
      <trkpt lat="47.28969" lon="-1.7083">
        <ele>75.031</ele>
        <time>2021-06-23T16:17:48Z</time>
      </trkpt>
      <trkpt lat="47.2895" lon="-1.70821">
        <ele>75.238</ele>
        <time>2021-06-23T16:17:52Z</time>
      </trkpt>
      <trkpt lat="47.28927" lon="-1.708">
        <ele>75.183</ele>
        <time>2021-06-23T16:17:58Z</time>
      </trkpt>
      <trkpt lat="47.28913" lon="-1.70781">
        <ele>74.936</ele>
        <time>2021-06-23T16:18:01Z</time>
      </trkpt>
      <trkpt lat="47.28902" lon="-1.7076">
        <ele>74.564</ele>
        <time>2021-06-23T16:18:05Z</time>
      </trkpt>
      <trkpt lat="47.28888" lon="-1.70721">
        <ele>73.966</ele>
        <time>2021-06-23T16:18:11Z</time>
      </trkpt>
      <trkpt lat="47.28872" lon="-1.70685">
        <ele>73.138</ele>
        <time>2021-06-23T16:18:17Z</time>
      </trkpt>
      <trkpt lat="47.28832" lon="-1.70633">
        <ele>71.357</ele>
        <time>2021-06-23T16:18:27Z</time>
      </trkpt>
      <trkpt lat="47.28809" lon="-1.70611">
        <ele>70.533</ele>
        <time>2021-06-23T16:18:33Z</time>
      </trkpt>
      <trkpt lat="47.28778" lon="-1.7059">
        <ele>69.191</ele>
        <time>2021-06-23T16:18:40Z</time>
      </trkpt>
      <trkpt lat="47.28699" lon="-1.70557">
        <ele>67.96</ele>
        <time>2021-06-23T16:18:56Z</time>
      </trkpt>
      <trkpt lat="47.28683" lon="-1.70552">
        <ele>68.64</ele>
        <time>2021-06-23T16:19:00Z</time>
      </trkpt>
      <trkpt lat="47.28657" lon="-1.70553">
        <ele>69.77</ele>
        <time>2021-06-23T16:19:05Z</time>
      </trkpt>
      <trkpt lat="47.28558" lon="-1.70543">
        <ele>72.027</ele>
        <time>2021-06-23T16:19:25Z</time>
      </trkpt>
      <trkpt lat="47.28534" lon="-1.70538">
        <ele>72.148</ele>
        <time>2021-06-23T16:19:30Z</time>
      </trkpt>
      <trkpt lat="47.28454" lon="-1.70531">
        <ele>71.805</ele>
        <time>2021-06-23T16:19:46Z</time>
      </trkpt>
      <trkpt lat="47.28424" lon="-1.70527">
        <ele>71.103</ele>
        <time>2021-06-23T16:19:52Z</time>
      </trkpt>
      <trkpt lat="47.28395" lon="-1.70528">
        <ele>70.524</ele>
        <time>2021-06-23T16:19:57Z</time>
      </trkpt>
      <trkpt lat="47.28357" lon="-1.70537">
        <ele>69.871</ele>
        <time>2021-06-23T16:20:05Z</time>
      </trkpt>
      <trkpt lat="47.28351" lon="-1.70526">
        <ele>69.563</ele>
        <time>2021-06-23T16:20:07Z</time>
      </trkpt>
      <trkpt lat="47.28359" lon="-1.705">
        <ele>69.371</ele>
        <time>2021-06-23T16:20:11Z</time>
      </trkpt>
      <trkpt lat="47.28377" lon="-1.70472">
        <ele>69.755</ele>
        <time>2021-06-23T16:20:16Z</time>
      </trkpt>
      <trkpt lat="47.28408" lon="-1.70412">
        <ele>70.209</ele>
        <time>2021-06-23T16:20:27Z</time>
      </trkpt>
      <trkpt lat="47.28398" lon="-1.70384">
        <ele>69.509</ele>
        <time>2021-06-23T16:20:31Z</time>
      </trkpt>
      <trkpt lat="47.2836" lon="-1.70329">
        <ele>69.341</ele>
        <time>2021-06-23T16:20:41Z</time>
      </trkpt>
      <trkpt lat="47.28312" lon="-1.7025">
        <ele>68.284</ele>
        <time>2021-06-23T16:20:56Z</time>
      </trkpt>
      <trkpt lat="47.28289" lon="-1.70221">
        <ele>67.055</ele>
        <time>2021-06-23T16:21:02Z</time>
      </trkpt>
      <trkpt lat="47.28267" lon="-1.70184">
        <ele>65.48</ele>
        <time>2021-06-23T16:21:09Z</time>
      </trkpt>
      <trkpt lat="47.28243" lon="-1.70139">
        <ele>64.419</ele>
        <time>2021-06-23T16:21:16Z</time>
      </trkpt>
      <trkpt lat="47.28215" lon="-1.70105">
        <ele>63.094</ele>
        <time>2021-06-23T16:21:24Z</time>
      </trkpt>
      <trkpt lat="47.28182" lon="-1.70097">
        <ele>63.79</ele>
        <time>2021-06-23T16:21:30Z</time>
      </trkpt>
      <trkpt lat="47.28105" lon="-1.70072">
        <ele>65.525</ele>
        <time>2021-06-23T16:21:46Z</time>
      </trkpt>
      <trkpt lat="47.28087" lon="-1.7005">
        <ele>65.94</ele>
        <time>2021-06-23T16:21:51Z</time>
      </trkpt>
      <trkpt lat="47.2808" lon="-1.7001">
        <ele>65.775</ele>
        <time>2021-06-23T16:21:57Z</time>
      </trkpt>
      <trkpt lat="47.28063" lon="-1.69933">
        <ele>64.414</ele>
        <time>2021-06-23T16:22:08Z</time>
      </trkpt>
      <trkpt lat="47.2804" lon="-1.69846">
        <ele>62.393</ele>
        <time>2021-06-23T16:22:20Z</time>
      </trkpt>
      <trkpt lat="47.28014" lon="-1.6976">
        <ele>59.633</ele>
        <time>2021-06-23T16:22:33Z</time>
      </trkpt>
      <trkpt lat="47.28004" lon="-1.69731">
        <ele>58.656</ele>
        <time>2021-06-23T16:22:37Z</time>
      </trkpt>
      <trkpt lat="47.27982" lon="-1.69724">
        <ele>58.641</ele>
        <time>2021-06-23T16:22:42Z</time>
      </trkpt>
      <trkpt lat="47.2796" lon="-1.69714">
        <ele>58.317</ele>
        <time>2021-06-23T16:22:46Z</time>
      </trkpt>
      <trkpt lat="47.27955" lon="-1.69687">
        <ele>57.387</ele>
        <time>2021-06-23T16:22:50Z</time>
      </trkpt>
      <trkpt lat="47.2794" lon="-1.69661">
        <ele>57.148</ele>
        <time>2021-06-23T16:22:55Z</time>
      </trkpt>
      <trkpt lat="47.2791" lon="-1.69674">
        <ele>58.854</ele>
        <time>2021-06-23T16:23:01Z</time>
      </trkpt>
      <trkpt lat="47.27893" lon="-1.69679">
        <ele>59.466</ele>
        <time>2021-06-23T16:23:04Z</time>
      </trkpt>
      <trkpt lat="47.27866" lon="-1.69678">
        <ele>60.009</ele>
        <time>2021-06-23T16:23:10Z</time>
      </trkpt>
      <trkpt lat="47.27836" lon="-1.69655">
        <ele>59.622</ele>
        <time>2021-06-23T16:23:17Z</time>
      </trkpt>
      <trkpt lat="47.27828" lon="-1.69652">
        <ele>59.653</ele>
        <time>2021-06-23T16:23:18Z</time>
      </trkpt>
      <trkpt lat="47.27821" lon="-1.6964">
        <ele>59.335</ele>
        <time>2021-06-23T16:23:21Z</time>
      </trkpt>
      <trkpt lat="47.27798" lon="-1.6964">
        <ele>58.851</ele>
        <time>2021-06-23T16:23:25Z</time>
      </trkpt>
      <trkpt lat="47.27783" lon="-1.696">
        <ele>57.857</ele>
        <time>2021-06-23T16:23:31Z</time>
      </trkpt>
      <trkpt lat="47.27776" lon="-1.69569">
        <ele>57.159</ele>
        <time>2021-06-23T16:23:36Z</time>
      </trkpt>
      <trkpt lat="47.27771" lon="-1.69457">
        <ele>54.13</ele>
        <time>2021-06-23T16:23:51Z</time>
      </trkpt>
      <trkpt lat="47.27774" lon="-1.69419">
        <ele>53.002</ele>
        <time>2021-06-23T16:23:56Z</time>
      </trkpt>
      <trkpt lat="47.27779" lon="-1.69379">
        <ele>51.631</ele>
        <time>2021-06-23T16:24:02Z</time>
      </trkpt>
      <trkpt lat="47.27773" lon="-1.69336">
        <ele>49.401</ele>
        <time>2021-06-23T16:24:08Z</time>
      </trkpt>
      <trkpt lat="47.27762" lon="-1.69304">
        <ele>47.201</ele>
        <time>2021-06-23T16:24:13Z</time>
      </trkpt>
      <trkpt lat="47.27748" lon="-1.69286">
        <ele>45.77</ele>
        <time>2021-06-23T16:24:16Z</time>
      </trkpt>
      <trkpt lat="47.27732" lon="-1.6928">
        <ele>46.459</ele>
        <time>2021-06-23T16:24:20Z</time>
      </trkpt>
      <trkpt lat="47.27692" lon="-1.69276">
        <ele>48.563</ele>
        <time>2021-06-23T16:24:28Z</time>
      </trkpt>
      <trkpt lat="47.27675" lon="-1.69268">
        <ele>49.37</ele>
        <time>2021-06-23T16:24:31Z</time>
      </trkpt>
      <trkpt lat="47.27637" lon="-1.69237">
        <ele>51.705</ele>
        <time>2021-06-23T16:24:40Z</time>
      </trkpt>
      <trkpt lat="47.27625" lon="-1.69223">
        <ele>52.379</ele>
        <time>2021-06-23T16:24:43Z</time>
      </trkpt>
      <trkpt lat="47.27592" lon="-1.69197">
        <ele>53.562</ele>
        <time>2021-06-23T16:24:50Z</time>
      </trkpt>
      <trkpt lat="47.2757" lon="-1.69185">
        <ele>54.289</ele>
        <time>2021-06-23T16:24:55Z</time>
      </trkpt>
      <trkpt lat="47.27555" lon="-1.69179">
        <ele>54.711</ele>
        <time>2021-06-23T16:24:58Z</time>
      </trkpt>
      <trkpt lat="47.27546" lon="-1.69158">
        <ele>55.297</ele>
        <time>2021-06-23T16:25:02Z</time>
      </trkpt>
      <trkpt lat="47.27547" lon="-1.69143">
        <ele>55.621</ele>
        <time>2021-06-23T16:25:04Z</time>
      </trkpt>
      <trkpt lat="47.27539" lon="-1.69134">
        <ele>55.814</ele>
        <time>2021-06-23T16:25:06Z</time>
      </trkpt>
      <trkpt lat="47.27523" lon="-1.69126">
        <ele>56.321</ele>
        <time>2021-06-23T16:25:09Z</time>
      </trkpt>
      <trkpt lat="47.27517" lon="-1.69116">
        <ele>56.914</ele>
        <time>2021-06-23T16:25:11Z</time>
      </trkpt>
      <trkpt lat="47.27507" lon="-1.69089">
        <ele>58.29</ele>
        <time>2021-06-23T16:25:15Z</time>
      </trkpt>
      <trkpt lat="47.27506" lon="-1.69075">
        <ele>58.873</ele>
        <time>2021-06-23T16:25:17Z</time>
      </trkpt>
      <trkpt lat="47.27493" lon="-1.69044">
        <ele>60.071</ele>
        <time>2021-06-23T16:25:22Z</time>
      </trkpt>
      <trkpt lat="47.2749" lon="-1.69031">
        <ele>60.334</ele>
        <time>2021-06-23T16:25:24Z</time>
      </trkpt>
      <trkpt lat="47.27474" lon="-1.69024">
        <ele>60.768</ele>
        <time>2021-06-23T16:25:27Z</time>
      </trkpt>
      <trkpt lat="47.27461" lon="-1.69023">
        <ele>61.068</ele>
        <time>2021-06-23T16:25:30Z</time>
      </trkpt>
      <trkpt lat="47.27446" lon="-1.69025">
        <ele>61.347</ele>
        <time>2021-06-23T16:25:33Z</time>
      </trkpt>
      <trkpt lat="47.27425" lon="-1.6902">
        <ele>61.87</ele>
        <time>2021-06-23T16:25:37Z</time>
      </trkpt>
      <trkpt lat="47.27359" lon="-1.68981">
        <ele>63.873</ele>
        <time>2021-06-23T16:25:51Z</time>
      </trkpt>
      <trkpt lat="47.27344" lon="-1.68969">
        <ele>64.149</ele>
        <time>2021-06-23T16:25:54Z</time>
      </trkpt>
      <trkpt lat="47.27328" lon="-1.6896">
        <ele>64.389</ele>
        <time>2021-06-23T16:25:58Z</time>
      </trkpt>
      <trkpt lat="47.27265" lon="-1.68933">
        <ele>65.483</ele>
        <time>2021-06-23T16:26:11Z</time>
      </trkpt>
      <trkpt lat="47.27209" lon="-1.68897">
        <ele>65.901</ele>
        <time>2021-06-23T16:26:23Z</time>
      </trkpt>
      <trkpt lat="47.27191" lon="-1.68893">
        <ele>65.883</ele>
        <time>2021-06-23T16:26:27Z</time>
      </trkpt>
      <trkpt lat="47.27165" lon="-1.68871">
        <ele>65.929</ele>
        <time>2021-06-23T16:26:33Z</time>
      </trkpt>
      <trkpt lat="47.27147" lon="-1.6885">
        <ele>66.054</ele>
        <time>2021-06-23T16:26:38Z</time>
      </trkpt>
      <trkpt lat="47.27133" lon="-1.68828">
        <ele>66.12</ele>
        <time>2021-06-23T16:26:42Z</time>
      </trkpt>
      <trkpt lat="47.27096" lon="-1.68793">
        <ele>67.364</ele>
        <time>2021-06-23T16:26:50Z</time>
      </trkpt>
      <trkpt lat="47.27079" lon="-1.68773">
        <ele>67.526</ele>
        <time>2021-06-23T16:26:55Z</time>
      </trkpt>
      <trkpt lat="47.27071" lon="-1.68754">
        <ele>67.456</ele>
        <time>2021-06-23T16:26:58Z</time>
      </trkpt>
      <trkpt lat="47.27066" lon="-1.68731">
        <ele>67.226</ele>
        <time>2021-06-23T16:27:01Z</time>
      </trkpt>
      <trkpt lat="47.27085" lon="-1.68704">
        <ele>66.395</ele>
        <time>2021-06-23T16:27:07Z</time>
      </trkpt>
      <trkpt lat="47.27076" lon="-1.68682">
        <ele>66.223</ele>
        <time>2021-06-23T16:27:10Z</time>
      </trkpt>
      <trkpt lat="47.2708" lon="-1.68634">
        <ele>65.171</ele>
        <time>2021-06-23T16:27:17Z</time>
      </trkpt>
      <trkpt lat="47.27077" lon="-1.68616">
        <ele>64.559</ele>
        <time>2021-06-23T16:27:19Z</time>
      </trkpt>
      <trkpt lat="47.27093" lon="-1.68579">
        <ele>62.831</ele>
        <time>2021-06-23T16:27:25Z</time>
      </trkpt>
      <trkpt lat="47.27107" lon="-1.68508">
        <ele>60.271</ele>
        <time>2021-06-23T16:27:35Z</time>
      </trkpt>
      <trkpt lat="47.27157" lon="-1.68501">
        <ele>58.645</ele>
        <time>2021-06-23T16:27:45Z</time>
      </trkpt>
      <trkpt lat="47.27179" lon="-1.6849">
        <ele>57.092</ele>
        <time>2021-06-23T16:27:50Z</time>
      </trkpt>
      <trkpt lat="47.27198" lon="-1.68457">
        <ele>54.692</ele>
        <time>2021-06-23T16:27:56Z</time>
      </trkpt>
      <trkpt lat="47.27209" lon="-1.68444">
        <ele>53.397</ele>
        <time>2021-06-23T16:27:58Z</time>
      </trkpt>
      <trkpt lat="47.2722" lon="-1.68422">
        <ele>50.814</ele>
        <time>2021-06-23T16:28:02Z</time>
      </trkpt>
      <trkpt lat="47.27219" lon="-1.68402">
        <ele>49.145</ele>
        <time>2021-06-23T16:28:05Z</time>
      </trkpt>
      <trkpt lat="47.27212" lon="-1.68385">
        <ele>48.678</ele>
        <time>2021-06-23T16:28:08Z</time>
      </trkpt>
      <trkpt lat="47.27186" lon="-1.68339">
        <ele>48.077</ele>
        <time>2021-06-23T16:28:16Z</time>
      </trkpt>
      <trkpt lat="47.27134" lon="-1.68235">
        <ele>45.157</ele>
        <time>2021-06-23T16:28:33Z</time>
      </trkpt>
      <trkpt lat="47.27115" lon="-1.68209">
        <ele>43.347</ele>
        <time>2021-06-23T16:28:39Z</time>
      </trkpt>
      <trkpt lat="47.27091" lon="-1.682">
        <ele>42.499</ele>
        <time>2021-06-23T16:28:43Z</time>
      </trkpt>
      <trkpt lat="47.2708" lon="-1.68184">
        <ele>41.759</ele>
        <time>2021-06-23T16:28:47Z</time>
      </trkpt>
      <trkpt lat="47.27087" lon="-1.68143">
        <ele>39.499</ele>
        <time>2021-06-23T16:28:52Z</time>
      </trkpt>
      <trkpt lat="47.2708" lon="-1.68125">
        <ele>39.752</ele>
        <time>2021-06-23T16:28:55Z</time>
      </trkpt>
      <trkpt lat="47.27072" lon="-1.6812">
        <ele>40.603</ele>
        <time>2021-06-23T16:28:57Z</time>
      </trkpt>
      <trkpt lat="47.27054" lon="-1.68135">
        <ele>44.681</ele>
        <time>2021-06-23T16:29:01Z</time>
      </trkpt>
      <trkpt lat="47.27036" lon="-1.68123">
        <ele>48.577</ele>
        <time>2021-06-23T16:29:05Z</time>
      </trkpt>
      <trkpt lat="47.27028" lon="-1.68102">
        <ele>50.517</ele>
        <time>2021-06-23T16:29:08Z</time>
      </trkpt>
      <trkpt lat="47.27021" lon="-1.68087">
        <ele>51.681</ele>
        <time>2021-06-23T16:29:11Z</time>
      </trkpt>
      <trkpt lat="47.27017" lon="-1.68071">
        <ele>51.828</ele>
        <time>2021-06-23T16:29:13Z</time>
      </trkpt>
      <trkpt lat="47.27013" lon="-1.68038">
        <ele>51.681</ele>
        <time>2021-06-23T16:29:18Z</time>
      </trkpt>
      <trkpt lat="47.27014" lon="-1.68005">
        <ele>51.3</ele>
        <time>2021-06-23T16:29:22Z</time>
      </trkpt>
      <trkpt lat="47.27023" lon="-1.67977">
        <ele>48.924</ele>
        <time>2021-06-23T16:29:26Z</time>
      </trkpt>
      <trkpt lat="47.27024" lon="-1.6796">
        <ele>48.818</ele>
        <time>2021-06-23T16:29:29Z</time>
      </trkpt>
      <trkpt lat="47.27031" lon="-1.67914">
        <ele>49.408</ele>
        <time>2021-06-23T16:29:35Z</time>
      </trkpt>
      <trkpt lat="47.27031" lon="-1.67892">
        <ele>50.42</ele>
        <time>2021-06-23T16:29:38Z</time>
      </trkpt>
      <trkpt lat="47.27047" lon="-1.67833">
        <ele>48.396</ele>
        <time>2021-06-23T16:29:47Z</time>
      </trkpt>
      <trkpt lat="47.27066" lon="-1.67768">
        <ele>46.154</ele>
        <time>2021-06-23T16:29:56Z</time>
      </trkpt>
      <trkpt lat="47.27076" lon="-1.67724">
        <ele>45.505</ele>
        <time>2021-06-23T16:30:03Z</time>
      </trkpt>
      <trkpt lat="47.27078" lon="-1.67687">
        <ele>45.399</ele>
        <time>2021-06-23T16:30:08Z</time>
      </trkpt>
      <trkpt lat="47.27075" lon="-1.67669">
        <ele>45.21</ele>
        <time>2021-06-23T16:30:10Z</time>
      </trkpt>
      <trkpt lat="47.27073" lon="-1.67639">
        <ele>44.501</ele>
        <time>2021-06-23T16:30:14Z</time>
      </trkpt>
      <trkpt lat="47.27065" lon="-1.67616">
        <ele>44.605</ele>
        <time>2021-06-23T16:30:18Z</time>
      </trkpt>
      <trkpt lat="47.27049" lon="-1.67551">
        <ele>44.022</ele>
        <time>2021-06-23T16:30:27Z</time>
      </trkpt>
      <trkpt lat="47.27046" lon="-1.67528">
        <ele>43.875</ele>
        <time>2021-06-23T16:30:30Z</time>
      </trkpt>
      <trkpt lat="47.2706" lon="-1.67481">
        <ele>40.32</ele>
        <time>2021-06-23T16:30:37Z</time>
      </trkpt>
      <trkpt lat="47.27067" lon="-1.67453">
        <ele>38.967</ele>
        <time>2021-06-23T16:30:41Z</time>
      </trkpt>
      <trkpt lat="47.27063" lon="-1.67431">
        <ele>39.105</ele>
        <time>2021-06-23T16:30:44Z</time>
      </trkpt>
      <trkpt lat="47.27065" lon="-1.67383">
        <ele>38.63</ele>
        <time>2021-06-23T16:30:51Z</time>
      </trkpt>
      <trkpt lat="47.27076" lon="-1.67371">
        <ele>37.293</ele>
        <time>2021-06-23T16:30:54Z</time>
      </trkpt>
      <trkpt lat="47.27087" lon="-1.67367">
        <ele>36.054</ele>
        <time>2021-06-23T16:30:56Z</time>
      </trkpt>
      <trkpt lat="47.27104" lon="-1.67366">
        <ele>35.253</ele>
        <time>2021-06-23T16:30:59Z</time>
      </trkpt>
      <trkpt lat="47.27125" lon="-1.67311">
        <ele>35.237</ele>
        <time>2021-06-23T16:31:08Z</time>
      </trkpt>
      <trkpt lat="47.27133" lon="-1.67273">
        <ele>36.101</ele>
        <time>2021-06-23T16:31:13Z</time>
      </trkpt>
      <trkpt lat="47.27131" lon="-1.67249">
        <ele>36.167</ele>
        <time>2021-06-23T16:31:17Z</time>
      </trkpt>
      <trkpt lat="47.27122" lon="-1.67223">
        <ele>37.238</ele>
        <time>2021-06-23T16:31:21Z</time>
      </trkpt>
      <trkpt lat="47.27116" lon="-1.67209">
        <ele>37.459</ele>
        <time>2021-06-23T16:31:23Z</time>
      </trkpt>
      <trkpt lat="47.27103" lon="-1.67199">
        <ele>35.567</ele>
        <time>2021-06-23T16:31:26Z</time>
      </trkpt>
      <trkpt lat="47.2707" lon="-1.67191">
        <ele>34.975</ele>
        <time>2021-06-23T16:31:32Z</time>
      </trkpt>
      <trkpt lat="47.27054" lon="-1.67184">
        <ele>34.833</ele>
        <time>2021-06-23T16:31:36Z</time>
      </trkpt>
      <trkpt lat="47.27027" lon="-1.67181">
        <ele>35.328</ele>
        <time>2021-06-23T16:31:41Z</time>
      </trkpt>
      <trkpt lat="47.27016" lon="-1.67176">
        <ele>35.625</ele>
        <time>2021-06-23T16:31:43Z</time>
      </trkpt>
      <trkpt lat="47.26979" lon="-1.6718">
        <ele>36.821</ele>
        <time>2021-06-23T16:31:51Z</time>
      </trkpt>
      <trkpt lat="47.26938" lon="-1.67195">
        <ele>36.393</ele>
        <time>2021-06-23T16:31:59Z</time>
      </trkpt>
      <trkpt lat="47.26914" lon="-1.67197">
        <ele>35.8</ele>
        <time>2021-06-23T16:32:04Z</time>
      </trkpt>
      <trkpt lat="47.26891" lon="-1.67189">
        <ele>34.718</ele>
        <time>2021-06-23T16:32:09Z</time>
      </trkpt>
      <trkpt lat="47.26869" lon="-1.67172">
        <ele>34.254</ele>
        <time>2021-06-23T16:32:14Z</time>
      </trkpt>
      <trkpt lat="47.26851" lon="-1.67154">
        <ele>34.626</ele>
        <time>2021-06-23T16:32:18Z</time>
      </trkpt>
      <trkpt lat="47.26777" lon="-1.67139">
        <ele>39.211</ele>
        <time>2021-06-23T16:32:33Z</time>
      </trkpt>
      <trkpt lat="47.26802" lon="-1.6712">
        <ele>37.752</ele>
        <time>2021-06-23T16:32:39Z</time>
      </trkpt>
      <trkpt lat="47.26805" lon="-1.671">
        <ele>38.048</ele>
        <time>2021-06-23T16:32:42Z</time>
      </trkpt>
      <trkpt lat="47.26814" lon="-1.67091">
        <ele>37.848</ele>
        <time>2021-06-23T16:32:44Z</time>
      </trkpt>
    </trkseg>
  </trk>
</gpx>